<?xml version="1.0" encoding="UTF-8" standalone="no" ?>
<gpx xmlns="http://www.topografix.com/GPX/1/1" xmlns:xsi="http://www.w3.org/2001/XMLSchema-instance" xsi:schemaLocation="http://www.topografix.com/GPX/1/1 http://www.topografix.com/GPX/1/1/gpx.xsd" version="1.1" creator="VisuGPX - https://www.visugpx.com">
  <metadata>
    <name>villers_13,8</name>
  </metadata>
  <trk>
    <name><![CDATA[villers_13,8]]></name>
    <extensions>
      <line xmlns="http://www.topografix.com/GPX/gpx_style/0/2">
        <width>3</width>
      </line>
    </extensions>
    <trkseg>
      <trkpt lat="49.32121" lon="-0.00694">
        <ele>23.9</ele>
        <time>2020-02-20T08:16:14.000Z</time>
      </trkpt>
      <trkpt lat="49.32118" lon="-0.00694">
        <ele>23.9</ele>
        <time>2020-02-20T08:16:15.000Z</time>
      </trkpt>
      <trkpt lat="49.32125" lon="-0.00675">
        <ele>18.2</ele>
        <time>2020-02-20T08:20:58.000Z</time>
      </trkpt>
      <trkpt lat="49.32111" lon="-0.00671">
        <ele>24.1</ele>
        <time>2020-02-20T08:21:08.000Z</time>
      </trkpt>
      <trkpt lat="49.32099" lon="-0.00663">
        <ele>26.5</ele>
        <time>2020-02-20T08:21:18.000Z</time>
      </trkpt>
      <trkpt lat="49.32085" lon="-0.00664">
        <ele>26.3</ele>
        <time>2020-02-20T08:21:29.000Z</time>
      </trkpt>
      <trkpt lat="49.32071" lon="-0.00662">
        <ele>27.8</ele>
        <time>2020-02-20T08:21:44.000Z</time>
      </trkpt>
      <trkpt lat="49.32058" lon="-0.00653">
        <ele>28.1</ele>
        <time>2020-02-20T08:21:58.000Z</time>
      </trkpt>
      <trkpt lat="49.32062" lon="-0.00633">
        <ele>27.8</ele>
        <time>2020-02-20T08:22:13.000Z</time>
      </trkpt>
      <trkpt lat="49.32053" lon="-0.00615">
        <ele>28.1</ele>
        <time>2020-02-20T08:22:33.000Z</time>
      </trkpt>
      <trkpt lat="49.3204" lon="-0.00609">
        <ele>28.5</ele>
        <time>2020-02-20T08:22:44.000Z</time>
      </trkpt>
      <trkpt lat="49.32025" lon="-0.0061">
        <ele>29.3</ele>
        <time>2020-02-20T08:22:53.000Z</time>
      </trkpt>
      <trkpt lat="49.32011" lon="-0.00609">
        <ele>30.1</ele>
        <time>2020-02-20T08:23:03.000Z</time>
      </trkpt>
      <trkpt lat="49.31997" lon="-0.00613">
        <ele>31</ele>
        <time>2020-02-20T08:23:14.000Z</time>
      </trkpt>
      <trkpt lat="49.31982" lon="-0.00612">
        <ele>31.4</ele>
        <time>2020-02-20T08:23:29.000Z</time>
      </trkpt>
      <trkpt lat="49.3197" lon="-0.00603">
        <ele>30.8</ele>
        <time>2020-02-20T08:23:43.000Z</time>
      </trkpt>
      <trkpt lat="49.31957" lon="-0.00597">
        <ele>32</ele>
        <time>2020-02-20T08:24:01.000Z</time>
      </trkpt>
      <trkpt lat="49.31944" lon="-0.00589">
        <ele>32.9</ele>
        <time>2020-02-20T08:24:27.000Z</time>
      </trkpt>
      <trkpt lat="49.3193" lon="-0.00582">
        <ele>34.2</ele>
        <time>2020-02-20T08:24:40.000Z</time>
      </trkpt>
      <trkpt lat="49.31918" lon="-0.00576">
        <ele>35.3</ele>
        <time>2020-02-20T08:24:51.000Z</time>
      </trkpt>
      <trkpt lat="49.31905" lon="-0.00566">
        <ele>36.4</ele>
        <time>2020-02-20T08:25:04.000Z</time>
      </trkpt>
      <trkpt lat="49.31892" lon="-0.00558">
        <ele>38.5</ele>
        <time>2020-02-20T08:25:20.000Z</time>
      </trkpt>
      <trkpt lat="49.31878" lon="-0.00553">
        <ele>40</ele>
        <time>2020-02-20T08:25:34.000Z</time>
      </trkpt>
      <trkpt lat="49.31864" lon="-0.0055">
        <ele>41.6</ele>
        <time>2020-02-20T08:25:52.000Z</time>
      </trkpt>
      <trkpt lat="49.31851" lon="-0.00542">
        <ele>42.2</ele>
        <time>2020-02-20T08:25:58.000Z</time>
      </trkpt>
      <trkpt lat="49.31837" lon="-0.0054">
        <ele>43.3</ele>
        <time>2020-02-20T08:26:08.000Z</time>
      </trkpt>
      <trkpt lat="49.31823" lon="-0.00534">
        <ele>45.1</ele>
        <time>2020-02-20T08:26:20.000Z</time>
      </trkpt>
      <trkpt lat="49.3181" lon="-0.0053">
        <ele>47.4</ele>
        <time>2020-02-20T08:26:34.000Z</time>
      </trkpt>
      <trkpt lat="49.31796" lon="-0.00524">
        <ele>49</ele>
        <time>2020-02-20T08:26:46.000Z</time>
      </trkpt>
      <trkpt lat="49.31782" lon="-0.00523">
        <ele>51.1</ele>
        <time>2020-02-20T08:27:04.000Z</time>
      </trkpt>
      <trkpt lat="49.31767" lon="-0.00517">
        <ele>52.9</ele>
        <time>2020-02-20T08:27:17.000Z</time>
      </trkpt>
      <trkpt lat="49.31754" lon="-0.0051">
        <ele>54.3</ele>
        <time>2020-02-20T08:27:32.000Z</time>
      </trkpt>
      <trkpt lat="49.31742" lon="-0.00498">
        <ele>55.5</ele>
        <time>2020-02-20T08:27:51.000Z</time>
      </trkpt>
      <trkpt lat="49.3173" lon="-0.00488">
        <ele>57.4</ele>
        <time>2020-02-20T08:28:05.000Z</time>
      </trkpt>
      <trkpt lat="49.31715" lon="-0.00479">
        <ele>58.8</ele>
        <time>2020-02-20T08:28:16.000Z</time>
      </trkpt>
      <trkpt lat="49.31705" lon="-0.00465">
        <ele>60.5</ele>
        <time>2020-02-20T08:28:30.000Z</time>
      </trkpt>
      <trkpt lat="49.31695" lon="-0.00448">
        <ele>62.8</ele>
        <time>2020-02-20T08:28:49.000Z</time>
      </trkpt>
      <trkpt lat="49.31683" lon="-0.00435">
        <ele>64.6</ele>
        <time>2020-02-20T08:29:05.000Z</time>
      </trkpt>
      <trkpt lat="49.31669" lon="-0.00429">
        <ele>66.2</ele>
        <time>2020-02-20T08:29:19.000Z</time>
      </trkpt>
      <trkpt lat="49.31657" lon="-0.0042">
        <ele>67.8</ele>
        <time>2020-02-20T08:29:31.000Z</time>
      </trkpt>
      <trkpt lat="49.31643" lon="-0.00421">
        <ele>70.5</ele>
        <time>2020-02-20T08:29:45.000Z</time>
      </trkpt>
      <trkpt lat="49.31631" lon="-0.00411">
        <ele>72</ele>
        <time>2020-02-20T08:29:59.000Z</time>
      </trkpt>
      <trkpt lat="49.31615" lon="-0.00396">
        <ele>73.5</ele>
        <time>2020-02-20T08:30:16.000Z</time>
      </trkpt>
      <trkpt lat="49.31602" lon="-0.00387">
        <ele>77.8</ele>
        <time>2020-02-20T08:30:46.000Z</time>
      </trkpt>
      <trkpt lat="49.31589" lon="-0.00379">
        <ele>79.7</ele>
        <time>2020-02-20T08:30:58.000Z</time>
      </trkpt>
      <trkpt lat="49.31575" lon="-0.00372">
        <ele>80.5</ele>
        <time>2020-02-20T08:31:03.000Z</time>
      </trkpt>
      <trkpt lat="49.31562" lon="-0.00365">
        <ele>82</ele>
        <time>2020-02-20T08:31:17.000Z</time>
      </trkpt>
      <trkpt lat="49.31547" lon="-0.00368">
        <ele>83.3</ele>
        <time>2020-02-20T08:31:33.000Z</time>
      </trkpt>
      <trkpt lat="49.31535" lon="-0.00357">
        <ele>85.4</ele>
        <time>2020-02-20T08:31:49.000Z</time>
      </trkpt>
      <trkpt lat="49.31522" lon="-0.00353">
        <ele>86.9</ele>
        <time>2020-02-20T08:32:49.000Z</time>
      </trkpt>
      <trkpt lat="49.31507" lon="-0.00347">
        <ele>87.2</ele>
        <time>2020-02-20T08:33:03.000Z</time>
      </trkpt>
      <trkpt lat="49.31494" lon="-0.00345">
        <ele>87.6</ele>
        <time>2020-02-20T08:33:13.000Z</time>
      </trkpt>
      <trkpt lat="49.31481" lon="-0.00336">
        <ele>88.3</ele>
        <time>2020-02-20T08:33:29.000Z</time>
      </trkpt>
      <trkpt lat="49.31467" lon="-0.00331">
        <ele>88.3</ele>
        <time>2020-02-20T08:33:40.000Z</time>
      </trkpt>
      <trkpt lat="49.31453" lon="-0.00322">
        <ele>87.9</ele>
        <time>2020-02-20T08:33:51.000Z</time>
      </trkpt>
      <trkpt lat="49.3144" lon="-0.00313">
        <ele>86.9</ele>
        <time>2020-02-20T08:34:03.000Z</time>
      </trkpt>
      <trkpt lat="49.31426" lon="-0.00306">
        <ele>85.7</ele>
        <time>2020-02-20T08:34:16.000Z</time>
      </trkpt>
      <trkpt lat="49.31412" lon="-0.00303">
        <ele>84.9</ele>
        <time>2020-02-20T08:34:25.000Z</time>
      </trkpt>
      <trkpt lat="49.31398" lon="-0.00302">
        <ele>84</ele>
        <time>2020-02-20T08:34:38.000Z</time>
      </trkpt>
      <trkpt lat="49.31384" lon="-0.00309">
        <ele>83.1</ele>
        <time>2020-02-20T08:34:49.000Z</time>
      </trkpt>
      <trkpt lat="49.31371" lon="-0.00314">
        <ele>81.7</ele>
        <time>2020-02-20T08:35:05.000Z</time>
      </trkpt>
      <trkpt lat="49.31357" lon="-0.0032">
        <ele>81.1</ele>
        <time>2020-02-20T08:35:19.000Z</time>
      </trkpt>
      <trkpt lat="49.31344" lon="-0.00329">
        <ele>79.9</ele>
        <time>2020-02-20T08:35:34.000Z</time>
      </trkpt>
      <trkpt lat="49.3133" lon="-0.00333">
        <ele>78.3</ele>
        <time>2020-02-20T08:35:50.000Z</time>
      </trkpt>
      <trkpt lat="49.31315" lon="-0.00337">
        <ele>77</ele>
        <time>2020-02-20T08:36:05.000Z</time>
      </trkpt>
      <trkpt lat="49.31302" lon="-0.00341">
        <ele>76.4</ele>
        <time>2020-02-20T08:36:14.000Z</time>
      </trkpt>
      <trkpt lat="49.31288" lon="-0.00341">
        <ele>75.4</ele>
        <time>2020-02-20T08:36:26.000Z</time>
      </trkpt>
      <trkpt lat="49.31274" lon="-0.00337">
        <ele>74.4</ele>
        <time>2020-02-20T08:36:40.000Z</time>
      </trkpt>
      <trkpt lat="49.31263" lon="-0.00324">
        <ele>72.2</ele>
        <time>2020-02-20T08:36:54.000Z</time>
      </trkpt>
      <trkpt lat="49.31253" lon="-0.00309">
        <ele>70.2</ele>
        <time>2020-02-20T08:37:06.000Z</time>
      </trkpt>
      <trkpt lat="49.31244" lon="-0.00291">
        <ele>67.5</ele>
        <time>2020-02-20T08:37:19.000Z</time>
      </trkpt>
      <trkpt lat="49.31237" lon="-0.00272">
        <ele>65.3</ele>
        <time>2020-02-20T08:37:31.000Z</time>
      </trkpt>
      <trkpt lat="49.31229" lon="-0.00253">
        <ele>63.5</ele>
        <time>2020-02-20T08:37:43.000Z</time>
      </trkpt>
      <trkpt lat="49.3122" lon="-0.00237">
        <ele>61.9</ele>
        <time>2020-02-20T08:37:56.000Z</time>
      </trkpt>
      <trkpt lat="49.31209" lon="-0.00223">
        <ele>60</ele>
        <time>2020-02-20T08:38:08.000Z</time>
      </trkpt>
      <trkpt lat="49.31202" lon="-0.00202">
        <ele>58.3</ele>
        <time>2020-02-20T08:38:20.000Z</time>
      </trkpt>
      <trkpt lat="49.31194" lon="-0.00185">
        <ele>56</ele>
        <time>2020-02-20T08:38:32.000Z</time>
      </trkpt>
      <trkpt lat="49.31184" lon="-0.00168">
        <ele>53.7</ele>
        <time>2020-02-20T08:38:44.000Z</time>
      </trkpt>
      <trkpt lat="49.31176" lon="-0.00152">
        <ele>51.7</ele>
        <time>2020-02-20T08:38:55.000Z</time>
      </trkpt>
      <trkpt lat="49.31166" lon="-0.00137">
        <ele>49.7</ele>
        <time>2020-02-20T08:39:09.000Z</time>
      </trkpt>
      <trkpt lat="49.31158" lon="-0.00119">
        <ele>47.3</ele>
        <time>2020-02-20T08:39:24.000Z</time>
      </trkpt>
      <trkpt lat="49.31148" lon="-0.00105">
        <ele>44.9</ele>
        <time>2020-02-20T08:39:38.000Z</time>
      </trkpt>
      <trkpt lat="49.31136" lon="-0.00095">
        <ele>42.7</ele>
        <time>2020-02-20T08:39:52.000Z</time>
      </trkpt>
      <trkpt lat="49.31121" lon="-0.00096">
        <ele>40.1</ele>
        <time>2020-02-20T08:40:05.000Z</time>
      </trkpt>
      <trkpt lat="49.31107" lon="-0.00104">
        <ele>39.8</ele>
        <time>2020-02-20T08:40:16.000Z</time>
      </trkpt>
      <trkpt lat="49.31094" lon="-0.00117">
        <ele>38.9</ele>
        <time>2020-02-20T08:40:33.000Z</time>
      </trkpt>
      <trkpt lat="49.31079" lon="-0.00132">
        <ele>39.3</ele>
        <time>2020-02-20T08:40:48.000Z</time>
      </trkpt>
      <trkpt lat="49.31066" lon="-0.00143">
        <ele>40.4</ele>
        <time>2020-02-20T08:41:02.000Z</time>
      </trkpt>
      <trkpt lat="49.31053" lon="-0.00146">
        <ele>41.3</ele>
        <time>2020-02-20T08:41:18.000Z</time>
      </trkpt>
      <trkpt lat="49.3104" lon="-0.00139">
        <ele>42.4</ele>
        <time>2020-02-20T08:41:36.000Z</time>
      </trkpt>
      <trkpt lat="49.31026" lon="-0.00135">
        <ele>42</ele>
        <time>2020-02-20T08:41:49.000Z</time>
      </trkpt>
      <trkpt lat="49.31011" lon="-0.00134">
        <ele>42.3</ele>
        <time>2020-02-20T08:42:01.000Z</time>
      </trkpt>
      <trkpt lat="49.30997" lon="-0.00141">
        <ele>43.1</ele>
        <time>2020-02-20T08:42:13.000Z</time>
      </trkpt>
      <trkpt lat="49.30984" lon="-0.00145">
        <ele>44</ele>
        <time>2020-02-20T08:42:32.000Z</time>
      </trkpt>
      <trkpt lat="49.30974" lon="-0.00129">
        <ele>45.5</ele>
        <time>2020-02-20T08:42:56.000Z</time>
      </trkpt>
      <trkpt lat="49.30971" lon="-0.00109">
        <ele>46.7</ele>
        <time>2020-02-20T08:43:10.000Z</time>
      </trkpt>
      <trkpt lat="49.3096" lon="-0.00089">
        <ele>47.6</ele>
        <time>2020-02-20T08:43:17.000Z</time>
      </trkpt>
      <trkpt lat="49.30969" lon="-0.00072">
        <ele>50.2</ele>
        <time>2020-02-20T08:43:41.000Z</time>
      </trkpt>
      <trkpt lat="49.3096" lon="-0.0005">
        <ele>51.6</ele>
        <time>2020-02-20T08:43:50.000Z</time>
      </trkpt>
      <trkpt lat="49.30954" lon="-0.00031">
        <ele>54.2</ele>
        <time>2020-02-20T08:44:09.000Z</time>
      </trkpt>
      <trkpt lat="49.3095" lon="-0.0001">
        <ele>56.4</ele>
        <time>2020-02-20T08:44:23.000Z</time>
      </trkpt>
      <trkpt lat="49.30945" lon="0.0001">
        <ele>58.5</ele>
        <time>2020-02-20T08:44:39.000Z</time>
      </trkpt>
      <trkpt lat="49.30943" lon="0.00031">
        <ele>59.9</ele>
        <time>2020-02-20T08:44:53.000Z</time>
      </trkpt>
      <trkpt lat="49.30939" lon="0.00051">
        <ele>61.1</ele>
        <time>2020-02-20T08:45:06.000Z</time>
      </trkpt>
      <trkpt lat="49.30932" lon="0.0007">
        <ele>63</ele>
        <time>2020-02-20T08:45:23.000Z</time>
      </trkpt>
      <trkpt lat="49.30929" lon="0.00093">
        <ele>64.2</ele>
        <time>2020-02-20T08:45:37.000Z</time>
      </trkpt>
      <trkpt lat="49.30937" lon="0.0011">
        <ele>66.8</ele>
        <time>2020-02-20T08:45:54.000Z</time>
      </trkpt>
      <trkpt lat="49.3095" lon="0.0012">
        <ele>67.5</ele>
        <time>2020-02-20T08:46:10.000Z</time>
      </trkpt>
      <trkpt lat="49.30964" lon="0.00127">
        <ele>67.7</ele>
        <time>2020-02-20T08:46:25.000Z</time>
      </trkpt>
      <trkpt lat="49.30978" lon="0.00138">
        <ele>68.1</ele>
        <time>2020-02-20T08:46:38.000Z</time>
      </trkpt>
      <trkpt lat="49.30973" lon="0.00157">
        <ele>69.4</ele>
        <time>2020-02-20T08:46:50.000Z</time>
      </trkpt>
      <trkpt lat="49.3097" lon="0.00178">
        <ele>70</ele>
        <time>2020-02-20T08:47:03.000Z</time>
      </trkpt>
      <trkpt lat="49.30967" lon="0.00199">
        <ele>70.5</ele>
        <time>2020-02-20T08:47:17.000Z</time>
      </trkpt>
      <trkpt lat="49.30967" lon="0.0022">
        <ele>71.7</ele>
        <time>2020-02-20T08:47:31.000Z</time>
      </trkpt>
      <trkpt lat="49.30974" lon="0.00239">
        <ele>72.8</ele>
        <time>2020-02-20T08:47:44.000Z</time>
      </trkpt>
      <trkpt lat="49.30979" lon="0.00259">
        <ele>73.3</ele>
        <time>2020-02-20T08:47:59.000Z</time>
      </trkpt>
      <trkpt lat="49.30971" lon="0.00276">
        <ele>73.9</ele>
        <time>2020-02-20T08:48:51.000Z</time>
      </trkpt>
      <trkpt lat="49.30959" lon="0.00287">
        <ele>74.8</ele>
        <time>2020-02-20T08:49:06.000Z</time>
      </trkpt>
      <trkpt lat="49.30946" lon="0.00296">
        <ele>75.7</ele>
        <time>2020-02-20T08:49:21.000Z</time>
      </trkpt>
      <trkpt lat="49.30934" lon="0.00309">
        <ele>76.9</ele>
        <time>2020-02-20T08:49:33.000Z</time>
      </trkpt>
      <trkpt lat="49.30924" lon="0.00324">
        <ele>78.2</ele>
        <time>2020-02-20T08:49:45.000Z</time>
      </trkpt>
      <trkpt lat="49.30913" lon="0.00335">
        <ele>79.4</ele>
        <time>2020-02-20T08:49:58.000Z</time>
      </trkpt>
      <trkpt lat="49.30903" lon="0.0035">
        <ele>80.4</ele>
        <time>2020-02-20T08:50:08.000Z</time>
      </trkpt>
      <trkpt lat="49.30889" lon="0.00361">
        <ele>81.3</ele>
        <time>2020-02-20T08:50:20.000Z</time>
      </trkpt>
      <trkpt lat="49.30876" lon="0.00369">
        <ele>82.9</ele>
        <time>2020-02-20T08:50:38.000Z</time>
      </trkpt>
      <trkpt lat="49.30862" lon="0.00374">
        <ele>84</ele>
        <time>2020-02-20T08:50:53.000Z</time>
      </trkpt>
      <trkpt lat="49.30849" lon="0.00379">
        <ele>84.6</ele>
        <time>2020-02-20T08:51:03.000Z</time>
      </trkpt>
      <trkpt lat="49.30835" lon="0.00385">
        <ele>86.3</ele>
        <time>2020-02-20T08:51:13.000Z</time>
      </trkpt>
      <trkpt lat="49.30821" lon="0.0039">
        <ele>86</ele>
        <time>2020-02-20T08:51:26.000Z</time>
      </trkpt>
      <trkpt lat="49.30808" lon="0.00391">
        <ele>86.9</ele>
        <time>2020-02-20T08:51:38.000Z</time>
      </trkpt>
      <trkpt lat="49.30793" lon="0.00393">
        <ele>88.1</ele>
        <time>2020-02-20T08:51:49.000Z</time>
      </trkpt>
      <trkpt lat="49.30779" lon="0.00392">
        <ele>89.6</ele>
        <time>2020-02-20T08:52:02.000Z</time>
      </trkpt>
      <trkpt lat="49.30765" lon="0.00392">
        <ele>90.3</ele>
        <time>2020-02-20T08:52:15.000Z</time>
      </trkpt>
      <trkpt lat="49.30751" lon="0.00394">
        <ele>91.4</ele>
        <time>2020-02-20T08:52:25.000Z</time>
      </trkpt>
      <trkpt lat="49.30737" lon="0.00393">
        <ele>92.3</ele>
        <time>2020-02-20T08:52:38.000Z</time>
      </trkpt>
      <trkpt lat="49.30724" lon="0.00394">
        <ele>93.2</ele>
        <time>2020-02-20T08:52:50.000Z</time>
      </trkpt>
      <trkpt lat="49.3071" lon="0.00393">
        <ele>94.3</ele>
        <time>2020-02-20T08:53:04.000Z</time>
      </trkpt>
      <trkpt lat="49.30696" lon="0.00397">
        <ele>95</ele>
        <time>2020-02-20T08:53:16.000Z</time>
      </trkpt>
      <trkpt lat="49.30683" lon="0.004">
        <ele>95.7</ele>
        <time>2020-02-20T08:53:28.000Z</time>
      </trkpt>
      <trkpt lat="49.30669" lon="0.00403">
        <ele>96.7</ele>
        <time>2020-02-20T08:53:40.000Z</time>
      </trkpt>
      <trkpt lat="49.30656" lon="0.00412">
        <ele>97.3</ele>
        <time>2020-02-20T08:53:52.000Z</time>
      </trkpt>
      <trkpt lat="49.30643" lon="0.00416">
        <ele>98.3</ele>
        <time>2020-02-20T08:54:02.000Z</time>
      </trkpt>
      <trkpt lat="49.3063" lon="0.00426">
        <ele>99.1</ele>
        <time>2020-02-20T08:54:18.000Z</time>
      </trkpt>
      <trkpt lat="49.30616" lon="0.00428">
        <ele>100.1</ele>
        <time>2020-02-20T08:54:37.000Z</time>
      </trkpt>
      <trkpt lat="49.30602" lon="0.00432">
        <ele>101.4</ele>
        <time>2020-02-20T08:54:50.000Z</time>
      </trkpt>
      <trkpt lat="49.30589" lon="0.00437">
        <ele>101.7</ele>
        <time>2020-02-20T08:55:06.000Z</time>
      </trkpt>
      <trkpt lat="49.30579" lon="0.0042">
        <ele>101.2</ele>
        <time>2020-02-20T08:55:41.000Z</time>
      </trkpt>
      <trkpt lat="49.30567" lon="0.00407">
        <ele>100.8</ele>
        <time>2020-02-20T08:55:51.000Z</time>
      </trkpt>
      <trkpt lat="49.30553" lon="0.00398">
        <ele>99.8</ele>
        <time>2020-02-20T08:56:03.000Z</time>
      </trkpt>
      <trkpt lat="49.3054" lon="0.00389">
        <ele>99.2</ele>
        <time>2020-02-20T08:56:15.000Z</time>
      </trkpt>
      <trkpt lat="49.30526" lon="0.00386">
        <ele>98.9</ele>
        <time>2020-02-20T08:56:26.000Z</time>
      </trkpt>
      <trkpt lat="49.30512" lon="0.00383">
        <ele>98.7</ele>
        <time>2020-02-20T08:56:40.000Z</time>
      </trkpt>
      <trkpt lat="49.30497" lon="0.00377">
        <ele>98.5</ele>
        <time>2020-02-20T08:56:55.000Z</time>
      </trkpt>
      <trkpt lat="49.30482" lon="0.00376">
        <ele>98.7</ele>
        <time>2020-02-20T08:57:07.000Z</time>
      </trkpt>
      <trkpt lat="49.30468" lon="0.00371">
        <ele>99.4</ele>
        <time>2020-02-20T08:57:18.000Z</time>
      </trkpt>
      <trkpt lat="49.30455" lon="0.00366">
        <ele>99.6</ele>
        <time>2020-02-20T08:57:29.000Z</time>
      </trkpt>
      <trkpt lat="49.30441" lon="0.00359">
        <ele>99.4</ele>
        <time>2020-02-20T08:57:40.000Z</time>
      </trkpt>
      <trkpt lat="49.30429" lon="0.00348">
        <ele>98.8</ele>
        <time>2020-02-20T08:57:51.000Z</time>
      </trkpt>
      <trkpt lat="49.30417" lon="0.00334">
        <ele>97.9</ele>
        <time>2020-02-20T08:58:03.000Z</time>
      </trkpt>
      <trkpt lat="49.30406" lon="0.0032">
        <ele>96.9</ele>
        <time>2020-02-20T08:58:14.000Z</time>
      </trkpt>
      <trkpt lat="49.30396" lon="0.00306">
        <ele>95.8</ele>
        <time>2020-02-20T08:58:28.000Z</time>
      </trkpt>
      <trkpt lat="49.30386" lon="0.0029">
        <ele>94.1</ele>
        <time>2020-02-20T08:58:42.000Z</time>
      </trkpt>
      <trkpt lat="49.30378" lon="0.00273">
        <ele>92.5</ele>
        <time>2020-02-20T08:58:53.000Z</time>
      </trkpt>
      <trkpt lat="49.30366" lon="0.0026">
        <ele>91.3</ele>
        <time>2020-02-20T08:59:05.000Z</time>
      </trkpt>
      <trkpt lat="49.30357" lon="0.00244">
        <ele>89.9</ele>
        <time>2020-02-20T08:59:16.000Z</time>
      </trkpt>
      <trkpt lat="49.30343" lon="0.00231">
        <ele>88.3</ele>
        <time>2020-02-20T08:59:29.000Z</time>
      </trkpt>
      <trkpt lat="49.30331" lon="0.00217">
        <ele>87.8</ele>
        <time>2020-02-20T08:59:37.000Z</time>
      </trkpt>
      <trkpt lat="49.30319" lon="0.0021">
        <ele>87.4</ele>
        <time>2020-02-20T08:59:48.000Z</time>
      </trkpt>
      <trkpt lat="49.30304" lon="0.0021">
        <ele>87.8</ele>
        <time>2020-02-20T09:00:03.000Z</time>
      </trkpt>
      <trkpt lat="49.30291" lon="0.0021">
        <ele>87.9</ele>
        <time>2020-02-20T09:00:11.000Z</time>
      </trkpt>
      <trkpt lat="49.30278" lon="0.00203">
        <ele>88.5</ele>
        <time>2020-02-20T09:00:24.000Z</time>
      </trkpt>
      <trkpt lat="49.30278" lon="0.00182">
        <ele>86.8</ele>
        <time>2020-02-20T09:00:39.000Z</time>
      </trkpt>
      <trkpt lat="49.30282" lon="0.0016">
        <ele>83.7</ele>
        <time>2020-02-20T09:00:54.000Z</time>
      </trkpt>
      <trkpt lat="49.30276" lon="0.0014">
        <ele>82</ele>
        <time>2020-02-20T09:01:04.000Z</time>
      </trkpt>
      <trkpt lat="49.3027" lon="0.00119">
        <ele>79.8</ele>
        <time>2020-02-20T09:01:17.000Z</time>
      </trkpt>
      <trkpt lat="49.30268" lon="0.00097">
        <ele>77.3</ele>
        <time>2020-02-20T09:01:33.000Z</time>
      </trkpt>
      <trkpt lat="49.30263" lon="0.00076">
        <ele>75.9</ele>
        <time>2020-02-20T09:01:44.000Z</time>
      </trkpt>
      <trkpt lat="49.30258" lon="0.00054">
        <ele>74.3</ele>
        <time>2020-02-20T09:01:54.000Z</time>
      </trkpt>
      <trkpt lat="49.30252" lon="0.00034">
        <ele>73.1</ele>
        <time>2020-02-20T09:02:05.000Z</time>
      </trkpt>
      <trkpt lat="49.30242" lon="0.00019">
        <ele>71.4</ele>
        <time>2020-02-20T09:02:15.000Z</time>
      </trkpt>
      <trkpt lat="49.30229" lon="0.0001">
        <ele>71.3</ele>
        <time>2020-02-20T09:02:26.000Z</time>
      </trkpt>
      <trkpt lat="49.30216" lon="1.0E-5">
        <ele>70.9</ele>
        <time>2020-02-20T09:02:36.000Z</time>
      </trkpt>
      <trkpt lat="49.30203" lon="-6.0E-5">
        <ele>70.6</ele>
        <time>2020-02-20T09:02:49.000Z</time>
      </trkpt>
      <trkpt lat="49.3019" lon="-0.00011">
        <ele>70.6</ele>
        <time>2020-02-20T09:03:03.000Z</time>
      </trkpt>
      <trkpt lat="49.30176" lon="-0.00018">
        <ele>71.9</ele>
        <time>2020-02-20T09:03:16.000Z</time>
      </trkpt>
      <trkpt lat="49.30163" lon="-0.00025">
        <ele>72.9</ele>
        <time>2020-02-20T09:03:26.000Z</time>
      </trkpt>
      <trkpt lat="49.30149" lon="-0.00029">
        <ele>74.2</ele>
        <time>2020-02-20T09:03:37.000Z</time>
      </trkpt>
      <trkpt lat="49.30135" lon="-0.00033">
        <ele>75.1</ele>
        <time>2020-02-20T09:03:46.000Z</time>
      </trkpt>
      <trkpt lat="49.30121" lon="-0.00039">
        <ele>76.8</ele>
        <time>2020-02-20T09:04:01.000Z</time>
      </trkpt>
      <trkpt lat="49.30108" lon="-0.00047">
        <ele>78</ele>
        <time>2020-02-20T09:04:13.000Z</time>
      </trkpt>
      <trkpt lat="49.30095" lon="-0.00053">
        <ele>80.1</ele>
        <time>2020-02-20T09:04:28.000Z</time>
      </trkpt>
      <trkpt lat="49.30079" lon="-0.00056">
        <ele>83.3</ele>
        <time>2020-02-20T09:04:47.000Z</time>
      </trkpt>
      <trkpt lat="49.30065" lon="-0.00054">
        <ele>86.2</ele>
        <time>2020-02-20T09:05:02.000Z</time>
      </trkpt>
      <trkpt lat="49.30053" lon="-0.00042">
        <ele>89.2</ele>
        <time>2020-02-20T09:05:20.000Z</time>
      </trkpt>
      <trkpt lat="49.30043" lon="-0.00028">
        <ele>92</ele>
        <time>2020-02-20T09:05:37.000Z</time>
      </trkpt>
      <trkpt lat="49.30029" lon="-0.00022">
        <ele>93.9</ele>
        <time>2020-02-20T09:06:08.000Z</time>
      </trkpt>
      <trkpt lat="49.30016" lon="-0.00017">
        <ele>95.3</ele>
        <time>2020-02-20T09:06:22.000Z</time>
      </trkpt>
      <trkpt lat="49.30002" lon="-0.0002">
        <ele>97.6</ele>
        <time>2020-02-20T09:06:36.000Z</time>
      </trkpt>
      <trkpt lat="49.29989" lon="-0.00016">
        <ele>101.3</ele>
        <time>2020-02-20T09:07:02.000Z</time>
      </trkpt>
      <trkpt lat="49.29977" lon="-5.0E-5">
        <ele>102.1</ele>
        <time>2020-02-20T09:07:15.000Z</time>
      </trkpt>
      <trkpt lat="49.29965" lon="6.0E-5">
        <ele>103.8</ele>
        <time>2020-02-20T09:07:29.000Z</time>
      </trkpt>
      <trkpt lat="49.29955" lon="0.0002">
        <ele>105.9</ele>
        <time>2020-02-20T09:07:43.000Z</time>
      </trkpt>
      <trkpt lat="49.29945" lon="0.00036">
        <ele>106.9</ele>
        <time>2020-02-20T09:07:55.000Z</time>
      </trkpt>
      <trkpt lat="49.29934" lon="0.00049">
        <ele>107.7</ele>
        <time>2020-02-20T09:08:07.000Z</time>
      </trkpt>
      <trkpt lat="49.29923" lon="0.00063">
        <ele>108.1</ele>
        <time>2020-02-20T09:08:19.000Z</time>
      </trkpt>
      <trkpt lat="49.29913" lon="0.00079">
        <ele>109.3</ele>
        <time>2020-02-20T09:08:32.000Z</time>
      </trkpt>
      <trkpt lat="49.29904" lon="0.00094">
        <ele>110.2</ele>
        <time>2020-02-20T09:08:44.000Z</time>
      </trkpt>
      <trkpt lat="49.29893" lon="0.00108">
        <ele>111.7</ele>
        <time>2020-02-20T09:08:58.000Z</time>
      </trkpt>
      <trkpt lat="49.29883" lon="0.00124">
        <ele>112.7</ele>
        <time>2020-02-20T09:09:12.000Z</time>
      </trkpt>
      <trkpt lat="49.29874" lon="0.0014">
        <ele>113.3</ele>
        <time>2020-02-20T09:09:25.000Z</time>
      </trkpt>
      <trkpt lat="49.29862" lon="0.00151">
        <ele>113.9</ele>
        <time>2020-02-20T09:09:37.000Z</time>
      </trkpt>
      <trkpt lat="49.29849" lon="0.00143">
        <ele>115.3</ele>
        <time>2020-02-20T09:09:50.000Z</time>
      </trkpt>
      <trkpt lat="49.29837" lon="0.00134">
        <ele>115.7</ele>
        <time>2020-02-20T09:10:05.000Z</time>
      </trkpt>
      <trkpt lat="49.29825" lon="0.00122">
        <ele>116.9</ele>
        <time>2020-02-20T09:10:21.000Z</time>
      </trkpt>
      <trkpt lat="49.29815" lon="0.00108">
        <ele>120</ele>
        <time>2020-02-20T09:10:36.000Z</time>
      </trkpt>
      <trkpt lat="49.29803" lon="0.00098">
        <ele>123</ele>
        <time>2020-02-20T09:10:48.000Z</time>
      </trkpt>
      <trkpt lat="49.29791" lon="0.00084">
        <ele>124.4</ele>
        <time>2020-02-20T09:11:01.000Z</time>
      </trkpt>
      <trkpt lat="49.29779" lon="0.0007">
        <ele>125.5</ele>
        <time>2020-02-20T09:11:17.000Z</time>
      </trkpt>
      <trkpt lat="49.29766" lon="0.00063">
        <ele>126.2</ele>
        <time>2020-02-20T09:11:31.000Z</time>
      </trkpt>
      <trkpt lat="49.29752" lon="0.00052">
        <ele>126.1</ele>
        <time>2020-02-20T09:11:42.000Z</time>
      </trkpt>
      <trkpt lat="49.29739" lon="0.00045">
        <ele>126.5</ele>
        <time>2020-02-20T09:11:55.000Z</time>
      </trkpt>
      <trkpt lat="49.29725" lon="0.00052">
        <ele>127.3</ele>
        <time>2020-02-20T09:12:14.000Z</time>
      </trkpt>
      <trkpt lat="49.29715" lon="0.00066">
        <ele>127.5</ele>
        <time>2020-02-20T09:12:31.000Z</time>
      </trkpt>
      <trkpt lat="49.29706" lon="0.00082">
        <ele>128.4</ele>
        <time>2020-02-20T09:12:45.000Z</time>
      </trkpt>
      <trkpt lat="49.29694" lon="0.00094">
        <ele>129.1</ele>
        <time>2020-02-20T09:12:56.000Z</time>
      </trkpt>
      <trkpt lat="49.29684" lon="0.00108">
        <ele>129.6</ele>
        <time>2020-02-20T09:13:11.000Z</time>
      </trkpt>
      <trkpt lat="49.29674" lon="0.00124">
        <ele>130</ele>
        <time>2020-02-20T09:13:22.000Z</time>
      </trkpt>
      <trkpt lat="49.29667" lon="0.00144">
        <ele>130.4</ele>
        <time>2020-02-20T09:13:34.000Z</time>
      </trkpt>
      <trkpt lat="49.29657" lon="0.00158">
        <ele>131.2</ele>
        <time>2020-02-20T09:13:45.000Z</time>
      </trkpt>
      <trkpt lat="49.29645" lon="0.00169">
        <ele>131.4</ele>
        <time>2020-02-20T09:13:55.000Z</time>
      </trkpt>
      <trkpt lat="49.29633" lon="0.00182">
        <ele>131.8</ele>
        <time>2020-02-20T09:14:07.000Z</time>
      </trkpt>
      <trkpt lat="49.29622" lon="0.00194">
        <ele>132</ele>
        <time>2020-02-20T09:14:18.000Z</time>
      </trkpt>
      <trkpt lat="49.29612" lon="0.00209">
        <ele>132.5</ele>
        <time>2020-02-20T09:14:31.000Z</time>
      </trkpt>
      <trkpt lat="49.29602" lon="0.00224">
        <ele>132.9</ele>
        <time>2020-02-20T09:14:42.000Z</time>
      </trkpt>
      <trkpt lat="49.29594" lon="0.00241">
        <ele>133.3</ele>
        <time>2020-02-20T09:14:53.000Z</time>
      </trkpt>
      <trkpt lat="49.29583" lon="0.00255">
        <ele>133.8</ele>
        <time>2020-02-20T09:15:05.000Z</time>
      </trkpt>
      <trkpt lat="49.2957" lon="0.00264">
        <ele>134.3</ele>
        <time>2020-02-20T09:15:16.000Z</time>
      </trkpt>
      <trkpt lat="49.29555" lon="0.00264">
        <ele>135</ele>
        <time>2020-02-20T09:15:36.000Z</time>
      </trkpt>
      <trkpt lat="49.29541" lon="0.00267">
        <ele>135.4</ele>
        <time>2020-02-20T09:15:46.000Z</time>
      </trkpt>
      <trkpt lat="49.29528" lon="0.00272">
        <ele>135.6</ele>
        <time>2020-02-20T09:15:58.000Z</time>
      </trkpt>
      <trkpt lat="49.29514" lon="0.00274">
        <ele>135.8</ele>
        <time>2020-02-20T09:16:09.000Z</time>
      </trkpt>
      <trkpt lat="49.295" lon="0.00278">
        <ele>136.4</ele>
        <time>2020-02-20T09:16:21.000Z</time>
      </trkpt>
      <trkpt lat="49.29486" lon="0.00284">
        <ele>136.7</ele>
        <time>2020-02-20T09:16:31.000Z</time>
      </trkpt>
      <trkpt lat="49.29473" lon="0.00287">
        <ele>136.5</ele>
        <time>2020-02-20T09:16:43.000Z</time>
      </trkpt>
      <trkpt lat="49.2946" lon="0.00294">
        <ele>136.7</ele>
        <time>2020-02-20T09:16:54.000Z</time>
      </trkpt>
      <trkpt lat="49.29446" lon="0.00301">
        <ele>136.8</ele>
        <time>2020-02-20T09:17:06.000Z</time>
      </trkpt>
      <trkpt lat="49.29432" lon="0.00302">
        <ele>136.9</ele>
        <time>2020-02-20T09:17:17.000Z</time>
      </trkpt>
      <trkpt lat="49.29421" lon="0.00314">
        <ele>137.6</ele>
        <time>2020-02-20T09:17:33.000Z</time>
      </trkpt>
      <trkpt lat="49.29409" lon="0.00326">
        <ele>137.9</ele>
        <time>2020-02-20T09:17:44.000Z</time>
      </trkpt>
      <trkpt lat="49.29398" lon="0.00339">
        <ele>138.4</ele>
        <time>2020-02-20T09:17:57.000Z</time>
      </trkpt>
      <trkpt lat="49.2939" lon="0.00355">
        <ele>138.6</ele>
        <time>2020-02-20T09:18:07.000Z</time>
      </trkpt>
      <trkpt lat="49.29383" lon="0.00373">
        <ele>139</ele>
        <time>2020-02-20T09:18:20.000Z</time>
      </trkpt>
      <trkpt lat="49.29376" lon="0.00394">
        <ele>139.7</ele>
        <time>2020-02-20T09:18:32.000Z</time>
      </trkpt>
      <trkpt lat="49.29369" lon="0.00413">
        <ele>140.3</ele>
        <time>2020-02-20T09:18:42.000Z</time>
      </trkpt>
      <trkpt lat="49.29363" lon="0.00432">
        <ele>140.6</ele>
        <time>2020-02-20T09:18:54.000Z</time>
      </trkpt>
      <trkpt lat="49.29356" lon="0.0045">
        <ele>141.1</ele>
        <time>2020-02-20T09:19:04.000Z</time>
      </trkpt>
      <trkpt lat="49.29348" lon="0.00467">
        <ele>140.9</ele>
        <time>2020-02-20T09:19:14.000Z</time>
      </trkpt>
      <trkpt lat="49.2934" lon="0.00487">
        <ele>140.9</ele>
        <time>2020-02-20T09:19:27.000Z</time>
      </trkpt>
      <trkpt lat="49.29331" lon="0.00503">
        <ele>141.4</ele>
        <time>2020-02-20T09:19:39.000Z</time>
      </trkpt>
      <trkpt lat="49.29323" lon="0.0052">
        <ele>141.6</ele>
        <time>2020-02-20T09:19:50.000Z</time>
      </trkpt>
      <trkpt lat="49.29313" lon="0.00535">
        <ele>141.7</ele>
        <time>2020-02-20T09:20:01.000Z</time>
      </trkpt>
      <trkpt lat="49.29305" lon="0.00553">
        <ele>142.1</ele>
        <time>2020-02-20T09:20:14.000Z</time>
      </trkpt>
      <trkpt lat="49.29297" lon="0.00572">
        <ele>142.1</ele>
        <time>2020-02-20T09:20:26.000Z</time>
      </trkpt>
      <trkpt lat="49.29293" lon="0.00592">
        <ele>141.1</ele>
        <time>2020-02-20T09:23:55.000Z</time>
      </trkpt>
      <trkpt lat="49.29289" lon="0.00612">
        <ele>140.8</ele>
        <time>2020-02-20T09:24:07.000Z</time>
      </trkpt>
      <trkpt lat="49.29286" lon="0.00633">
        <ele>141.2</ele>
        <time>2020-02-20T09:24:17.000Z</time>
      </trkpt>
      <trkpt lat="49.29282" lon="0.00655">
        <ele>141.2</ele>
        <time>2020-02-20T09:24:29.000Z</time>
      </trkpt>
      <trkpt lat="49.29277" lon="0.00675">
        <ele>141</ele>
        <time>2020-02-20T09:24:39.000Z</time>
      </trkpt>
      <trkpt lat="49.2927" lon="0.00694">
        <ele>142</ele>
        <time>2020-02-20T09:24:52.000Z</time>
      </trkpt>
      <trkpt lat="49.29261" lon="0.00711">
        <ele>142.4</ele>
        <time>2020-02-20T09:25:04.000Z</time>
      </trkpt>
      <trkpt lat="49.29247" lon="0.00713">
        <ele>143.1</ele>
        <time>2020-02-20T09:26:22.000Z</time>
      </trkpt>
      <trkpt lat="49.29234" lon="0.00704">
        <ele>143.7</ele>
        <time>2020-02-20T09:26:37.000Z</time>
      </trkpt>
      <trkpt lat="49.29222" lon="0.00692">
        <ele>144.9</ele>
        <time>2020-02-20T09:26:52.000Z</time>
      </trkpt>
      <trkpt lat="49.2921" lon="0.00681">
        <ele>144.4</ele>
        <time>2020-02-20T09:27:06.000Z</time>
      </trkpt>
      <trkpt lat="49.29198" lon="0.0067">
        <ele>145.1</ele>
        <time>2020-02-20T09:27:27.000Z</time>
      </trkpt>
      <trkpt lat="49.29186" lon="0.00659">
        <ele>145.9</ele>
        <time>2020-02-20T09:27:43.000Z</time>
      </trkpt>
      <trkpt lat="49.29176" lon="0.00643">
        <ele>146.4</ele>
        <time>2020-02-20T09:27:57.000Z</time>
      </trkpt>
      <trkpt lat="49.29164" lon="0.00631">
        <ele>147.2</ele>
        <time>2020-02-20T09:28:18.000Z</time>
      </trkpt>
      <trkpt lat="49.29155" lon="0.00615">
        <ele>147.2</ele>
        <time>2020-02-20T09:28:32.000Z</time>
      </trkpt>
      <trkpt lat="49.29147" lon="0.00596">
        <ele>147.3</ele>
        <time>2020-02-20T09:28:44.000Z</time>
      </trkpt>
      <trkpt lat="49.29137" lon="0.00581">
        <ele>147.2</ele>
        <time>2020-02-20T09:28:58.000Z</time>
      </trkpt>
      <trkpt lat="49.29133" lon="0.0056">
        <ele>147.4</ele>
        <time>2020-02-20T09:29:19.000Z</time>
      </trkpt>
      <trkpt lat="49.29124" lon="0.00544">
        <ele>147.3</ele>
        <time>2020-02-20T09:29:33.000Z</time>
      </trkpt>
      <trkpt lat="49.29116" lon="0.00527">
        <ele>147.4</ele>
        <time>2020-02-20T09:29:46.000Z</time>
      </trkpt>
      <trkpt lat="49.2911" lon="0.00508">
        <ele>147.3</ele>
        <time>2020-02-20T09:30:01.000Z</time>
      </trkpt>
      <trkpt lat="49.29104" lon="0.00488">
        <ele>147.2</ele>
        <time>2020-02-20T09:30:13.000Z</time>
      </trkpt>
      <trkpt lat="49.29097" lon="0.00469">
        <ele>147.4</ele>
        <time>2020-02-20T09:30:29.000Z</time>
      </trkpt>
      <trkpt lat="49.29092" lon="0.00449">
        <ele>147.5</ele>
        <time>2020-02-20T09:30:41.000Z</time>
      </trkpt>
      <trkpt lat="49.29086" lon="0.0043">
        <ele>147.5</ele>
        <time>2020-02-20T09:30:50.000Z</time>
      </trkpt>
      <trkpt lat="49.29077" lon="0.00414">
        <ele>147.5</ele>
        <time>2020-02-20T09:31:01.000Z</time>
      </trkpt>
      <trkpt lat="49.29067" lon="0.00399">
        <ele>147.3</ele>
        <time>2020-02-20T09:31:13.000Z</time>
      </trkpt>
      <trkpt lat="49.29057" lon="0.00384">
        <ele>147.3</ele>
        <time>2020-02-20T09:31:23.000Z</time>
      </trkpt>
      <trkpt lat="49.29049" lon="0.00366">
        <ele>147.3</ele>
        <time>2020-02-20T09:31:33.000Z</time>
      </trkpt>
      <trkpt lat="49.29036" lon="0.00352">
        <ele>146.9</ele>
        <time>2020-02-20T09:31:44.000Z</time>
      </trkpt>
      <trkpt lat="49.29025" lon="0.0034">
        <ele>147.1</ele>
        <time>2020-02-20T09:31:57.000Z</time>
      </trkpt>
      <trkpt lat="49.2902" lon="0.0032">
        <ele>147.3</ele>
        <time>2020-02-20T09:32:09.000Z</time>
      </trkpt>
      <trkpt lat="49.29018" lon="0.00299">
        <ele>147.3</ele>
        <time>2020-02-20T09:32:20.000Z</time>
      </trkpt>
      <trkpt lat="49.29014" lon="0.00278">
        <ele>147</ele>
        <time>2020-02-20T09:32:30.000Z</time>
      </trkpt>
      <trkpt lat="49.29008" lon="0.0026">
        <ele>146.8</ele>
        <time>2020-02-20T09:32:44.000Z</time>
      </trkpt>
      <trkpt lat="49.28998" lon="0.00244">
        <ele>147.1</ele>
        <time>2020-02-20T09:32:57.000Z</time>
      </trkpt>
      <trkpt lat="49.28989" lon="0.00226">
        <ele>146.9</ele>
        <time>2020-02-20T09:33:09.000Z</time>
      </trkpt>
      <trkpt lat="49.28979" lon="0.00209">
        <ele>146.8</ele>
        <time>2020-02-20T09:33:22.000Z</time>
      </trkpt>
      <trkpt lat="49.2897" lon="0.00193">
        <ele>146.4</ele>
        <time>2020-02-20T09:33:36.000Z</time>
      </trkpt>
      <trkpt lat="49.2896" lon="0.00178">
        <ele>145.8</ele>
        <time>2020-02-20T09:33:50.000Z</time>
      </trkpt>
      <trkpt lat="49.28953" lon="0.00159">
        <ele>145.4</ele>
        <time>2020-02-20T09:34:03.000Z</time>
      </trkpt>
      <trkpt lat="49.28964" lon="0.00145">
        <ele>144.1</ele>
        <time>2020-02-20T09:34:27.000Z</time>
      </trkpt>
      <trkpt lat="49.2897" lon="0.00126">
        <ele>143.6</ele>
        <time>2020-02-20T09:49:14.000Z</time>
      </trkpt>
      <trkpt lat="49.28977" lon="0.00108">
        <ele>142.1</ele>
        <time>2020-02-20T09:49:27.000Z</time>
      </trkpt>
      <trkpt lat="49.28986" lon="0.00092">
        <ele>140.7</ele>
        <time>2020-02-20T09:49:46.000Z</time>
      </trkpt>
      <trkpt lat="49.28995" lon="0.00074">
        <ele>139.4</ele>
        <time>2020-02-20T09:49:59.000Z</time>
      </trkpt>
      <trkpt lat="49.29004" lon="0.00057">
        <ele>138.1</ele>
        <time>2020-02-20T09:50:12.000Z</time>
      </trkpt>
      <trkpt lat="49.29014" lon="0.0004">
        <ele>137</ele>
        <time>2020-02-20T09:50:24.000Z</time>
      </trkpt>
      <trkpt lat="49.29024" lon="0.00025">
        <ele>135.9</ele>
        <time>2020-02-20T09:50:35.000Z</time>
      </trkpt>
      <trkpt lat="49.29034" lon="0.0001">
        <ele>134.7</ele>
        <time>2020-02-20T09:50:46.000Z</time>
      </trkpt>
      <trkpt lat="49.2904" lon="-0.0001">
        <ele>133.3</ele>
        <time>2020-02-20T09:50:59.000Z</time>
      </trkpt>
      <trkpt lat="49.2905" lon="-0.00025">
        <ele>132.5</ele>
        <time>2020-02-20T09:51:09.000Z</time>
      </trkpt>
      <trkpt lat="49.2906" lon="-0.00042">
        <ele>131.1</ele>
        <time>2020-02-20T09:51:20.000Z</time>
      </trkpt>
      <trkpt lat="49.29069" lon="-0.00058">
        <ele>130</ele>
        <time>2020-02-20T09:51:33.000Z</time>
      </trkpt>
      <trkpt lat="49.29079" lon="-0.00073">
        <ele>128.8</ele>
        <time>2020-02-20T09:51:43.000Z</time>
      </trkpt>
      <trkpt lat="49.29089" lon="-0.00088">
        <ele>127.7</ele>
        <time>2020-02-20T09:51:53.000Z</time>
      </trkpt>
      <trkpt lat="49.29097" lon="-0.00106">
        <ele>126.6</ele>
        <time>2020-02-20T09:52:05.000Z</time>
      </trkpt>
      <trkpt lat="49.29107" lon="-0.00123">
        <ele>125.7</ele>
        <time>2020-02-20T09:52:15.000Z</time>
      </trkpt>
      <trkpt lat="49.29114" lon="-0.00141">
        <ele>124.6</ele>
        <time>2020-02-20T09:52:27.000Z</time>
      </trkpt>
      <trkpt lat="49.29114" lon="-0.00162">
        <ele>124.5</ele>
        <time>2020-02-20T09:52:37.000Z</time>
      </trkpt>
      <trkpt lat="49.29116" lon="-0.00183">
        <ele>124.7</ele>
        <time>2020-02-20T09:52:48.000Z</time>
      </trkpt>
      <trkpt lat="49.29118" lon="-0.00204">
        <ele>125.6</ele>
        <time>2020-02-20T09:53:00.000Z</time>
      </trkpt>
      <trkpt lat="49.29115" lon="-0.00225">
        <ele>126.1</ele>
        <time>2020-02-20T09:53:11.000Z</time>
      </trkpt>
      <trkpt lat="49.29114" lon="-0.00246">
        <ele>126.9</ele>
        <time>2020-02-20T09:53:23.000Z</time>
      </trkpt>
      <trkpt lat="49.29113" lon="-0.00267">
        <ele>128.2</ele>
        <time>2020-02-20T09:53:35.000Z</time>
      </trkpt>
      <trkpt lat="49.29114" lon="-0.00288">
        <ele>129.7</ele>
        <time>2020-02-20T09:53:49.000Z</time>
      </trkpt>
      <trkpt lat="49.29118" lon="-0.00309">
        <ele>131.5</ele>
        <time>2020-02-20T09:54:03.000Z</time>
      </trkpt>
      <trkpt lat="49.29124" lon="-0.00329">
        <ele>133.3</ele>
        <time>2020-02-20T09:54:17.000Z</time>
      </trkpt>
      <trkpt lat="49.29126" lon="-0.0035">
        <ele>135</ele>
        <time>2020-02-20T09:54:29.000Z</time>
      </trkpt>
      <trkpt lat="49.29129" lon="-0.00372">
        <ele>136.6</ele>
        <time>2020-02-20T09:54:43.000Z</time>
      </trkpt>
      <trkpt lat="49.29134" lon="-0.00391">
        <ele>137.8</ele>
        <time>2020-02-20T09:54:56.000Z</time>
      </trkpt>
      <trkpt lat="49.29139" lon="-0.00411">
        <ele>139.3</ele>
        <time>2020-02-20T09:55:10.000Z</time>
      </trkpt>
      <trkpt lat="49.29143" lon="-0.00432">
        <ele>140.5</ele>
        <time>2020-02-20T09:55:24.000Z</time>
      </trkpt>
      <trkpt lat="49.29152" lon="-0.0045">
        <ele>141.8</ele>
        <time>2020-02-20T09:55:35.000Z</time>
      </trkpt>
      <trkpt lat="49.29158" lon="-0.00469">
        <ele>142.9</ele>
        <time>2020-02-20T09:55:49.000Z</time>
      </trkpt>
      <trkpt lat="49.29165" lon="-0.00486">
        <ele>143.8</ele>
        <time>2020-02-20T09:56:02.000Z</time>
      </trkpt>
      <trkpt lat="49.29173" lon="-0.00504">
        <ele>144.4</ele>
        <time>2020-02-20T09:56:15.000Z</time>
      </trkpt>
      <trkpt lat="49.29182" lon="-0.0052">
        <ele>144.4</ele>
        <time>2020-02-20T09:56:27.000Z</time>
      </trkpt>
      <trkpt lat="49.29191" lon="-0.00535">
        <ele>145.5</ele>
        <time>2020-02-20T09:56:38.000Z</time>
      </trkpt>
      <trkpt lat="49.292" lon="-0.00553">
        <ele>144.4</ele>
        <time>2020-02-20T09:56:51.000Z</time>
      </trkpt>
      <trkpt lat="49.29207" lon="-0.00571">
        <ele>144.3</ele>
        <time>2020-02-20T09:57:03.000Z</time>
      </trkpt>
      <trkpt lat="49.29215" lon="-0.00588">
        <ele>144.9</ele>
        <time>2020-02-20T09:57:13.000Z</time>
      </trkpt>
      <trkpt lat="49.29224" lon="-0.00603">
        <ele>144.9</ele>
        <time>2020-02-20T09:57:26.000Z</time>
      </trkpt>
      <trkpt lat="49.29231" lon="-0.00622">
        <ele>144.8</ele>
        <time>2020-02-20T09:57:38.000Z</time>
      </trkpt>
      <trkpt lat="49.29237" lon="-0.00641">
        <ele>144.5</ele>
        <time>2020-02-20T09:57:50.000Z</time>
      </trkpt>
      <trkpt lat="49.29241" lon="-0.00661">
        <ele>144.3</ele>
        <time>2020-02-20T09:58:02.000Z</time>
      </trkpt>
      <trkpt lat="49.29249" lon="-0.00678">
        <ele>144.5</ele>
        <time>2020-02-20T09:58:13.000Z</time>
      </trkpt>
      <trkpt lat="49.29261" lon="-0.0069">
        <ele>144.5</ele>
        <time>2020-02-20T09:58:27.000Z</time>
      </trkpt>
      <trkpt lat="49.29275" lon="-0.00696">
        <ele>144.4</ele>
        <time>2020-02-20T09:58:40.000Z</time>
      </trkpt>
      <trkpt lat="49.29289" lon="-0.00697">
        <ele>143.1</ele>
        <time>2020-02-20T09:58:53.000Z</time>
      </trkpt>
      <trkpt lat="49.29303" lon="-0.00691">
        <ele>142.4</ele>
        <time>2020-02-20T09:59:05.000Z</time>
      </trkpt>
      <trkpt lat="49.29317" lon="-0.00691">
        <ele>142.5</ele>
        <time>2020-02-20T09:59:19.000Z</time>
      </trkpt>
      <trkpt lat="49.29331" lon="-0.00694">
        <ele>141.5</ele>
        <time>2020-02-20T09:59:39.000Z</time>
      </trkpt>
      <trkpt lat="49.29344" lon="-0.00701">
        <ele>140.4</ele>
        <time>2020-02-20T09:59:51.000Z</time>
      </trkpt>
      <trkpt lat="49.29357" lon="-0.00708">
        <ele>138.5</ele>
        <time>2020-02-20T10:00:04.000Z</time>
      </trkpt>
      <trkpt lat="49.29372" lon="-0.00718">
        <ele>137.6</ele>
        <time>2020-02-20T10:00:15.000Z</time>
      </trkpt>
      <trkpt lat="49.29386" lon="-0.00722">
        <ele>137.1</ele>
        <time>2020-02-20T10:00:25.000Z</time>
      </trkpt>
      <trkpt lat="49.294" lon="-0.00722">
        <ele>137</ele>
        <time>2020-02-20T10:00:39.000Z</time>
      </trkpt>
      <trkpt lat="49.29413" lon="-0.00711">
        <ele>138</ele>
        <time>2020-02-20T10:00:53.000Z</time>
      </trkpt>
      <trkpt lat="49.29427" lon="-0.00704">
        <ele>137.3</ele>
        <time>2020-02-20T10:01:09.000Z</time>
      </trkpt>
      <trkpt lat="49.29441" lon="-0.00693">
        <ele>136.4</ele>
        <time>2020-02-20T10:01:28.000Z</time>
      </trkpt>
      <trkpt lat="49.29451" lon="-0.00679">
        <ele>135.6</ele>
        <time>2020-02-20T10:01:42.000Z</time>
      </trkpt>
      <trkpt lat="49.29462" lon="-0.00664">
        <ele>132.9</ele>
        <time>2020-02-20T10:01:58.000Z</time>
      </trkpt>
      <trkpt lat="49.29476" lon="-0.00658">
        <ele>132.6</ele>
        <time>2020-02-20T10:02:05.000Z</time>
      </trkpt>
      <trkpt lat="49.29489" lon="-0.00653">
        <ele>131.2</ele>
        <time>2020-02-20T10:02:16.000Z</time>
      </trkpt>
      <trkpt lat="49.29499" lon="-0.00639">
        <ele>128.8</ele>
        <time>2020-02-20T10:02:30.000Z</time>
      </trkpt>
      <trkpt lat="49.29512" lon="-0.00628">
        <ele>126.6</ele>
        <time>2020-02-20T10:02:45.000Z</time>
      </trkpt>
      <trkpt lat="49.29525" lon="-0.00623">
        <ele>125.1</ele>
        <time>2020-02-20T10:02:56.000Z</time>
      </trkpt>
      <trkpt lat="49.29538" lon="-0.00617">
        <ele>123.7</ele>
        <time>2020-02-20T10:03:08.000Z</time>
      </trkpt>
      <trkpt lat="49.2955" lon="-0.00606">
        <ele>123.4</ele>
        <time>2020-02-20T10:03:16.000Z</time>
      </trkpt>
      <trkpt lat="49.29561" lon="-0.00595">
        <ele>122.4</ele>
        <time>2020-02-20T10:03:27.000Z</time>
      </trkpt>
      <trkpt lat="49.29574" lon="-0.00586">
        <ele>121.6</ele>
        <time>2020-02-20T10:03:39.000Z</time>
      </trkpt>
      <trkpt lat="49.29586" lon="-0.00576">
        <ele>120.5</ele>
        <time>2020-02-20T10:03:51.000Z</time>
      </trkpt>
      <trkpt lat="49.29598" lon="-0.00564">
        <ele>119.7</ele>
        <time>2020-02-20T10:04:23.000Z</time>
      </trkpt>
      <trkpt lat="49.29609" lon="-0.00552">
        <ele>118.8</ele>
        <time>2020-02-20T10:04:34.000Z</time>
      </trkpt>
      <trkpt lat="49.29622" lon="-0.00543">
        <ele>118.2</ele>
        <time>2020-02-20T10:04:48.000Z</time>
      </trkpt>
      <trkpt lat="49.29634" lon="-0.00532">
        <ele>118.2</ele>
        <time>2020-02-20T10:04:59.000Z</time>
      </trkpt>
      <trkpt lat="49.29646" lon="-0.00521">
        <ele>118.5</ele>
        <time>2020-02-20T10:05:12.000Z</time>
      </trkpt>
      <trkpt lat="49.29659" lon="-0.00512">
        <ele>118.9</ele>
        <time>2020-02-20T10:05:24.000Z</time>
      </trkpt>
      <trkpt lat="49.29672" lon="-0.00506">
        <ele>119.2</ele>
        <time>2020-02-20T10:05:37.000Z</time>
      </trkpt>
      <trkpt lat="49.29685" lon="-0.00496">
        <ele>118.9</ele>
        <time>2020-02-20T10:05:48.000Z</time>
      </trkpt>
      <trkpt lat="49.29698" lon="-0.00488">
        <ele>117.5</ele>
        <time>2020-02-20T10:06:03.000Z</time>
      </trkpt>
      <trkpt lat="49.2971" lon="-0.00478">
        <ele>116.5</ele>
        <time>2020-02-20T10:06:12.000Z</time>
      </trkpt>
      <trkpt lat="49.29722" lon="-0.00467">
        <ele>114.6</ele>
        <time>2020-02-20T10:06:24.000Z</time>
      </trkpt>
      <trkpt lat="49.29735" lon="-0.00462">
        <ele>113.1</ele>
        <time>2020-02-20T10:06:38.000Z</time>
      </trkpt>
      <trkpt lat="49.29748" lon="-0.00465">
        <ele>112.7</ele>
        <time>2020-02-20T10:06:49.000Z</time>
      </trkpt>
      <trkpt lat="49.29761" lon="-0.00473">
        <ele>112.4</ele>
        <time>2020-02-20T10:07:01.000Z</time>
      </trkpt>
      <trkpt lat="49.29774" lon="-0.00482">
        <ele>112.5</ele>
        <time>2020-02-20T10:07:12.000Z</time>
      </trkpt>
      <trkpt lat="49.29784" lon="-0.005">
        <ele>112.5</ele>
        <time>2020-02-20T10:07:22.000Z</time>
      </trkpt>
      <trkpt lat="49.29793" lon="-0.00517">
        <ele>113</ele>
        <time>2020-02-20T10:07:34.000Z</time>
      </trkpt>
      <trkpt lat="49.29803" lon="-0.00533">
        <ele>112.6</ele>
        <time>2020-02-20T10:07:44.000Z</time>
      </trkpt>
      <trkpt lat="49.29816" lon="-0.00537">
        <ele>112.6</ele>
        <time>2020-02-20T10:08:00.000Z</time>
      </trkpt>
      <trkpt lat="49.29828" lon="-0.00528">
        <ele>113.2</ele>
        <time>2020-02-20T10:08:13.000Z</time>
      </trkpt>
      <trkpt lat="49.29842" lon="-0.00526">
        <ele>114.1</ele>
        <time>2020-02-20T10:08:24.000Z</time>
      </trkpt>
      <trkpt lat="49.29856" lon="-0.00525">
        <ele>114.7</ele>
        <time>2020-02-20T10:08:36.000Z</time>
      </trkpt>
      <trkpt lat="49.2987" lon="-0.00526">
        <ele>115.1</ele>
        <time>2020-02-20T10:08:47.000Z</time>
      </trkpt>
      <trkpt lat="49.29884" lon="-0.00522">
        <ele>115</ele>
        <time>2020-02-20T10:08:57.000Z</time>
      </trkpt>
      <trkpt lat="49.29898" lon="-0.00524">
        <ele>114.7</ele>
        <time>2020-02-20T10:09:04.000Z</time>
      </trkpt>
      <trkpt lat="49.29912" lon="-0.0052">
        <ele>115.5</ele>
        <time>2020-02-20T10:09:17.000Z</time>
      </trkpt>
      <trkpt lat="49.29925" lon="-0.00521">
        <ele>115.5</ele>
        <time>2020-02-20T10:09:29.000Z</time>
      </trkpt>
      <trkpt lat="49.29939" lon="-0.00522">
        <ele>115.5</ele>
        <time>2020-02-20T10:09:37.000Z</time>
      </trkpt>
      <trkpt lat="49.29953" lon="-0.00524">
        <ele>115.9</ele>
        <time>2020-02-20T10:09:47.000Z</time>
      </trkpt>
      <trkpt lat="49.29969" lon="-0.00523">
        <ele>115.8</ele>
        <time>2020-02-20T10:09:58.000Z</time>
      </trkpt>
      <trkpt lat="49.29984" lon="-0.00523">
        <ele>116.2</ele>
        <time>2020-02-20T10:10:09.000Z</time>
      </trkpt>
      <trkpt lat="49.29997" lon="-0.00526">
        <ele>115.9</ele>
        <time>2020-02-20T10:10:23.000Z</time>
      </trkpt>
      <trkpt lat="49.30011" lon="-0.00527">
        <ele>115.8</ele>
        <time>2020-02-20T10:10:36.000Z</time>
      </trkpt>
      <trkpt lat="49.30025" lon="-0.00523">
        <ele>116.1</ele>
        <time>2020-02-20T10:10:46.000Z</time>
      </trkpt>
      <trkpt lat="49.3004" lon="-0.00518">
        <ele>116.2</ele>
        <time>2020-02-20T10:10:58.000Z</time>
      </trkpt>
      <trkpt lat="49.30053" lon="-0.00509">
        <ele>116.3</ele>
        <time>2020-02-20T10:11:08.000Z</time>
      </trkpt>
      <trkpt lat="49.30066" lon="-0.00508">
        <ele>116.2</ele>
        <time>2020-02-20T10:11:19.000Z</time>
      </trkpt>
      <trkpt lat="49.30081" lon="-0.00506">
        <ele>115.6</ele>
        <time>2020-02-20T10:11:32.000Z</time>
      </trkpt>
      <trkpt lat="49.30095" lon="-0.00503">
        <ele>115.4</ele>
        <time>2020-02-20T10:11:41.000Z</time>
      </trkpt>
      <trkpt lat="49.30109" lon="-0.00503">
        <ele>115</ele>
        <time>2020-02-20T10:11:53.000Z</time>
      </trkpt>
      <trkpt lat="49.30123" lon="-0.005">
        <ele>115.4</ele>
        <time>2020-02-20T10:12:04.000Z</time>
      </trkpt>
      <trkpt lat="49.30137" lon="-0.00504">
        <ele>115.5</ele>
        <time>2020-02-20T10:12:19.000Z</time>
      </trkpt>
      <trkpt lat="49.3014" lon="-0.00525">
        <ele>116.9</ele>
        <time>2020-02-20T10:13:13.000Z</time>
      </trkpt>
      <trkpt lat="49.30138" lon="-0.00546">
        <ele>117</ele>
        <time>2020-02-20T10:13:24.000Z</time>
      </trkpt>
      <trkpt lat="49.30136" lon="-0.00567">
        <ele>118.7</ele>
        <time>2020-02-20T10:13:38.000Z</time>
      </trkpt>
      <trkpt lat="49.30132" lon="-0.00588">
        <ele>121.3</ele>
        <time>2020-02-20T10:13:55.000Z</time>
      </trkpt>
      <trkpt lat="49.30127" lon="-0.00608">
        <ele>123.2</ele>
        <time>2020-02-20T10:14:09.000Z</time>
      </trkpt>
      <trkpt lat="49.30118" lon="-0.00625">
        <ele>124.9</ele>
        <time>2020-02-20T10:14:25.000Z</time>
      </trkpt>
      <trkpt lat="49.3011" lon="-0.00643">
        <ele>125.8</ele>
        <time>2020-02-20T10:14:35.000Z</time>
      </trkpt>
      <trkpt lat="49.30104" lon="-0.00663">
        <ele>129.5</ele>
        <time>2020-02-20T10:14:55.000Z</time>
      </trkpt>
      <trkpt lat="49.30099" lon="-0.00684">
        <ele>129.6</ele>
        <time>2020-02-20T10:15:08.000Z</time>
      </trkpt>
      <trkpt lat="49.30094" lon="-0.00704">
        <ele>131.5</ele>
        <time>2020-02-20T10:15:23.000Z</time>
      </trkpt>
      <trkpt lat="49.30087" lon="-0.00722">
        <ele>131.8</ele>
        <time>2020-02-20T10:15:35.000Z</time>
      </trkpt>
      <trkpt lat="49.30082" lon="-0.00741">
        <ele>132.4</ele>
        <time>2020-02-20T10:15:48.000Z</time>
      </trkpt>
      <trkpt lat="49.30075" lon="-0.0076">
        <ele>132.5</ele>
        <time>2020-02-20T10:16:01.000Z</time>
      </trkpt>
      <trkpt lat="49.30064" lon="-0.00777">
        <ele>132.8</ele>
        <time>2020-02-20T10:16:14.000Z</time>
      </trkpt>
      <trkpt lat="49.30059" lon="-0.00797">
        <ele>133.9</ele>
        <time>2020-02-20T10:16:26.000Z</time>
      </trkpt>
      <trkpt lat="49.30071" lon="-0.00811">
        <ele>133.2</ele>
        <time>2020-02-20T10:17:29.000Z</time>
      </trkpt>
      <trkpt lat="49.30085" lon="-0.00808">
        <ele>131.8</ele>
        <time>2020-02-20T10:17:42.000Z</time>
      </trkpt>
      <trkpt lat="49.30099" lon="-0.00806">
        <ele>130.4</ele>
        <time>2020-02-20T10:17:57.000Z</time>
      </trkpt>
      <trkpt lat="49.30113" lon="-0.00803">
        <ele>127.1</ele>
        <time>2020-02-20T10:18:14.000Z</time>
      </trkpt>
      <trkpt lat="49.30127" lon="-0.008">
        <ele>124.6</ele>
        <time>2020-02-20T10:18:27.000Z</time>
      </trkpt>
      <trkpt lat="49.30141" lon="-0.00794">
        <ele>122</ele>
        <time>2020-02-20T10:18:40.000Z</time>
      </trkpt>
      <trkpt lat="49.30155" lon="-0.00789">
        <ele>121.1</ele>
        <time>2020-02-20T10:18:53.000Z</time>
      </trkpt>
      <trkpt lat="49.30168" lon="-0.0078">
        <ele>121</ele>
        <time>2020-02-20T10:19:08.000Z</time>
      </trkpt>
      <trkpt lat="49.30181" lon="-0.00772">
        <ele>121.3</ele>
        <time>2020-02-20T10:19:19.000Z</time>
      </trkpt>
      <trkpt lat="49.30194" lon="-0.00763">
        <ele>122</ele>
        <time>2020-02-20T10:19:29.000Z</time>
      </trkpt>
      <trkpt lat="49.30207" lon="-0.00758">
        <ele>121</ele>
        <time>2020-02-20T10:19:52.000Z</time>
      </trkpt>
      <trkpt lat="49.3022" lon="-0.00747">
        <ele>119.4</ele>
        <time>2020-02-20T10:20:07.000Z</time>
      </trkpt>
      <trkpt lat="49.30232" lon="-0.00735">
        <ele>118.8</ele>
        <time>2020-02-20T10:20:21.000Z</time>
      </trkpt>
      <trkpt lat="49.30243" lon="-0.00723">
        <ele>118.9</ele>
        <time>2020-02-20T10:20:32.000Z</time>
      </trkpt>
      <trkpt lat="49.30252" lon="-0.00706">
        <ele>119.3</ele>
        <time>2020-02-20T10:20:45.000Z</time>
      </trkpt>
      <trkpt lat="49.30264" lon="-0.00694">
        <ele>119.4</ele>
        <time>2020-02-20T10:20:59.000Z</time>
      </trkpt>
      <trkpt lat="49.30276" lon="-0.00682">
        <ele>118.9</ele>
        <time>2020-02-20T10:21:11.000Z</time>
      </trkpt>
      <trkpt lat="49.30287" lon="-0.00671">
        <ele>117.9</ele>
        <time>2020-02-20T10:21:27.000Z</time>
      </trkpt>
      <trkpt lat="49.30299" lon="-0.00659">
        <ele>117.2</ele>
        <time>2020-02-20T10:21:46.000Z</time>
      </trkpt>
      <trkpt lat="49.30309" lon="-0.00644">
        <ele>115.9</ele>
        <time>2020-02-20T10:22:05.000Z</time>
      </trkpt>
      <trkpt lat="49.30321" lon="-0.00629">
        <ele>114.3</ele>
        <time>2020-02-20T10:22:21.000Z</time>
      </trkpt>
      <trkpt lat="49.30333" lon="-0.00619">
        <ele>111.3</ele>
        <time>2020-02-20T10:22:51.000Z</time>
      </trkpt>
      <trkpt lat="49.30347" lon="-0.00615">
        <ele>109.9</ele>
        <time>2020-02-20T10:23:11.000Z</time>
      </trkpt>
      <trkpt lat="49.30361" lon="-0.00614">
        <ele>107.4</ele>
        <time>2020-02-20T10:23:32.000Z</time>
      </trkpt>
      <trkpt lat="49.30372" lon="-0.00602">
        <ele>103.5</ele>
        <time>2020-02-20T10:24:12.000Z</time>
      </trkpt>
      <trkpt lat="49.30381" lon="-0.00585">
        <ele>103.1</ele>
        <time>2020-02-20T10:24:28.000Z</time>
      </trkpt>
      <trkpt lat="49.30394" lon="-0.00574">
        <ele>101.5</ele>
        <time>2020-02-20T10:24:46.000Z</time>
      </trkpt>
      <trkpt lat="49.30405" lon="-0.00561">
        <ele>100.7</ele>
        <time>2020-02-20T10:24:58.000Z</time>
      </trkpt>
      <trkpt lat="49.30416" lon="-0.00551">
        <ele>100.1</ele>
        <time>2020-02-20T10:25:10.000Z</time>
      </trkpt>
      <trkpt lat="49.3043" lon="-0.0055">
        <ele>99.4</ele>
        <time>2020-02-20T10:25:28.000Z</time>
      </trkpt>
      <trkpt lat="49.30442" lon="-0.00561">
        <ele>96.6</ele>
        <time>2020-02-20T10:25:45.000Z</time>
      </trkpt>
      <trkpt lat="49.30454" lon="-0.00572">
        <ele>99.3</ele>
        <time>2020-02-20T10:26:09.000Z</time>
      </trkpt>
      <trkpt lat="49.30457" lon="-0.00593">
        <ele>100.5</ele>
        <time>2020-02-20T10:26:26.000Z</time>
      </trkpt>
      <trkpt lat="49.30466" lon="-0.00609">
        <ele>103.2</ele>
        <time>2020-02-20T10:26:50.000Z</time>
      </trkpt>
      <trkpt lat="49.30475" lon="-0.00627">
        <ele>104.6</ele>
        <time>2020-02-20T10:26:58.000Z</time>
      </trkpt>
      <trkpt lat="49.30486" lon="-0.00641">
        <ele>106.4</ele>
        <time>2020-02-20T10:27:10.000Z</time>
      </trkpt>
      <trkpt lat="49.30497" lon="-0.00654">
        <ele>107.8</ele>
        <time>2020-02-20T10:27:27.000Z</time>
      </trkpt>
      <trkpt lat="49.30503" lon="-0.00673">
        <ele>110.4</ele>
        <time>2020-02-20T10:27:55.000Z</time>
      </trkpt>
      <trkpt lat="49.30505" lon="-0.00694">
        <ele>111.4</ele>
        <time>2020-02-20T10:28:18.000Z</time>
      </trkpt>
      <trkpt lat="49.30518" lon="-0.00701">
        <ele>114.7</ele>
        <time>2020-02-20T10:29:00.000Z</time>
      </trkpt>
      <trkpt lat="49.30528" lon="-0.00686">
        <ele>115.3</ele>
        <time>2020-02-20T10:29:19.000Z</time>
      </trkpt>
      <trkpt lat="49.30541" lon="-0.00696">
        <ele>118.4</ele>
        <time>2020-02-20T10:29:56.000Z</time>
      </trkpt>
      <trkpt lat="49.30548" lon="-0.00714">
        <ele>119.4</ele>
        <time>2020-02-20T10:30:09.000Z</time>
      </trkpt>
      <trkpt lat="49.30557" lon="-0.00733">
        <ele>120.2</ele>
        <time>2020-02-20T10:30:19.000Z</time>
      </trkpt>
      <trkpt lat="49.30564" lon="-0.0075">
        <ele>119.9</ele>
        <time>2020-02-20T10:30:40.000Z</time>
      </trkpt>
      <trkpt lat="49.30572" lon="-0.00768">
        <ele>118.1</ele>
        <time>2020-02-20T10:33:24.000Z</time>
      </trkpt>
      <trkpt lat="49.30584" lon="-0.00779">
        <ele>118.1</ele>
        <time>2020-02-20T10:33:37.000Z</time>
      </trkpt>
      <trkpt lat="49.30588" lon="-0.00801">
        <ele>114.7</ele>
        <time>2020-02-20T10:33:53.000Z</time>
      </trkpt>
      <trkpt lat="49.30595" lon="-0.00819">
        <ele>112.9</ele>
        <time>2020-02-20T10:34:08.000Z</time>
      </trkpt>
      <trkpt lat="49.30601" lon="-0.00839">
        <ele>109.1</ele>
        <time>2020-02-20T10:34:28.000Z</time>
      </trkpt>
      <trkpt lat="49.30608" lon="-0.00859">
        <ele>107</ele>
        <time>2020-02-20T10:34:41.000Z</time>
      </trkpt>
      <trkpt lat="49.30614" lon="-0.00879">
        <ele>105.7</ele>
        <time>2020-02-20T10:34:51.000Z</time>
      </trkpt>
      <trkpt lat="49.30624" lon="-0.00892">
        <ele>103.5</ele>
        <time>2020-02-20T10:35:07.000Z</time>
      </trkpt>
      <trkpt lat="49.30637" lon="-0.00903">
        <ele>102.8</ele>
        <time>2020-02-20T10:35:27.000Z</time>
      </trkpt>
      <trkpt lat="49.30648" lon="-0.00914">
        <ele>103.7</ele>
        <time>2020-02-20T10:35:41.000Z</time>
      </trkpt>
      <trkpt lat="49.30659" lon="-0.00927">
        <ele>105.9</ele>
        <time>2020-02-20T10:35:59.000Z</time>
      </trkpt>
      <trkpt lat="49.30664" lon="-0.00947">
        <ele>107.2</ele>
        <time>2020-02-20T10:36:14.000Z</time>
      </trkpt>
      <trkpt lat="49.30673" lon="-0.00963">
        <ele>109.1</ele>
        <time>2020-02-20T10:36:33.000Z</time>
      </trkpt>
      <trkpt lat="49.30682" lon="-0.0098">
        <ele>111.1</ele>
        <time>2020-02-20T10:36:49.000Z</time>
      </trkpt>
      <trkpt lat="49.30692" lon="-0.00996">
        <ele>112</ele>
        <time>2020-02-20T10:36:59.000Z</time>
      </trkpt>
      <trkpt lat="49.30701" lon="-0.01012">
        <ele>113.2</ele>
        <time>2020-02-20T10:37:20.000Z</time>
      </trkpt>
      <trkpt lat="49.30711" lon="-0.01028">
        <ele>114.1</ele>
        <time>2020-02-20T10:37:34.000Z</time>
      </trkpt>
      <trkpt lat="49.30711" lon="-0.01049">
        <ele>115.8</ele>
        <time>2020-02-20T10:37:55.000Z</time>
      </trkpt>
      <trkpt lat="49.30712" lon="-0.01071">
        <ele>117.4</ele>
        <time>2020-02-20T10:38:09.000Z</time>
      </trkpt>
      <trkpt lat="49.30714" lon="-0.01092">
        <ele>119</ele>
        <time>2020-02-20T10:38:24.000Z</time>
      </trkpt>
      <trkpt lat="49.30719" lon="-0.01111">
        <ele>121.2</ele>
        <time>2020-02-20T10:38:42.000Z</time>
      </trkpt>
      <trkpt lat="49.30733" lon="-0.01119">
        <ele>118.6</ele>
        <time>2020-02-20T10:39:09.000Z</time>
      </trkpt>
      <trkpt lat="49.30721" lon="-0.01136">
        <ele>124.4</ele>
        <time>2020-02-20T10:39:35.000Z</time>
      </trkpt>
      <trkpt lat="49.30711" lon="-0.01149">
        <ele>125.8</ele>
        <time>2020-02-20T10:39:48.000Z</time>
      </trkpt>
      <trkpt lat="49.30711" lon="-0.0117">
        <ele>127.4</ele>
        <time>2020-02-20T10:40:07.000Z</time>
      </trkpt>
      <trkpt lat="49.30717" lon="-0.0119">
        <ele>130</ele>
        <time>2020-02-20T10:40:22.000Z</time>
      </trkpt>
      <trkpt lat="49.30725" lon="-0.01206">
        <ele>132.8</ele>
        <time>2020-02-20T10:40:36.000Z</time>
      </trkpt>
      <trkpt lat="49.30734" lon="-0.01223">
        <ele>133.3</ele>
        <time>2020-02-20T10:40:48.000Z</time>
      </trkpt>
      <trkpt lat="49.30742" lon="-0.0124">
        <ele>134.8</ele>
        <time>2020-02-20T10:41:03.000Z</time>
      </trkpt>
      <trkpt lat="49.3075" lon="-0.01258">
        <ele>136.2</ele>
        <time>2020-02-20T10:41:18.000Z</time>
      </trkpt>
      <trkpt lat="49.30756" lon="-0.01276">
        <ele>136.2</ele>
        <time>2020-02-20T10:41:29.000Z</time>
      </trkpt>
      <trkpt lat="49.30756" lon="-0.01298">
        <ele>135.7</ele>
        <time>2020-02-20T10:42:11.000Z</time>
      </trkpt>
      <trkpt lat="49.30744" lon="-0.01311">
        <ele>136.2</ele>
        <time>2020-02-20T10:42:25.000Z</time>
      </trkpt>
      <trkpt lat="49.30734" lon="-0.01324">
        <ele>136.5</ele>
        <time>2020-02-20T10:42:37.000Z</time>
      </trkpt>
      <trkpt lat="49.30725" lon="-0.0134">
        <ele>136.1</ele>
        <time>2020-02-20T10:42:50.000Z</time>
      </trkpt>
      <trkpt lat="49.30712" lon="-0.01348">
        <ele>136.2</ele>
        <time>2020-02-20T10:42:59.000Z</time>
      </trkpt>
      <trkpt lat="49.30701" lon="-0.01362">
        <ele>137.1</ele>
        <time>2020-02-20T10:43:22.000Z</time>
      </trkpt>
      <trkpt lat="49.30688" lon="-0.0137">
        <ele>136.6</ele>
        <time>2020-02-20T10:43:35.000Z</time>
      </trkpt>
      <trkpt lat="49.30675" lon="-0.01377">
        <ele>136.7</ele>
        <time>2020-02-20T10:43:47.000Z</time>
      </trkpt>
      <trkpt lat="49.30663" lon="-0.01388">
        <ele>137.5</ele>
        <time>2020-02-20T10:44:00.000Z</time>
      </trkpt>
      <trkpt lat="49.30651" lon="-0.01398">
        <ele>137.9</ele>
        <time>2020-02-20T10:44:19.000Z</time>
      </trkpt>
      <trkpt lat="49.30639" lon="-0.01408">
        <ele>138.4</ele>
        <time>2020-02-20T10:44:29.000Z</time>
      </trkpt>
      <trkpt lat="49.30625" lon="-0.01417">
        <ele>138.6</ele>
        <time>2020-02-20T10:44:40.000Z</time>
      </trkpt>
      <trkpt lat="49.30613" lon="-0.01424">
        <ele>138.5</ele>
        <time>2020-02-20T10:44:50.000Z</time>
      </trkpt>
      <trkpt lat="49.30601" lon="-0.01436">
        <ele>139</ele>
        <time>2020-02-20T10:45:00.000Z</time>
      </trkpt>
      <trkpt lat="49.30589" lon="-0.01445">
        <ele>139.3</ele>
        <time>2020-02-20T10:45:09.000Z</time>
      </trkpt>
      <trkpt lat="49.30575" lon="-0.01453">
        <ele>139.5</ele>
        <time>2020-02-20T10:45:20.000Z</time>
      </trkpt>
      <trkpt lat="49.30562" lon="-0.01463">
        <ele>140.4</ele>
        <time>2020-02-20T10:45:32.000Z</time>
      </trkpt>
      <trkpt lat="49.30549" lon="-0.01469">
        <ele>141.2</ele>
        <time>2020-02-20T10:45:45.000Z</time>
      </trkpt>
      <trkpt lat="49.30536" lon="-0.01479">
        <ele>142.6</ele>
        <time>2020-02-20T10:45:57.000Z</time>
      </trkpt>
      <trkpt lat="49.30523" lon="-0.01487">
        <ele>142.7</ele>
        <time>2020-02-20T10:46:08.000Z</time>
      </trkpt>
      <trkpt lat="49.30509" lon="-0.01494">
        <ele>143.1</ele>
        <time>2020-02-20T10:46:18.000Z</time>
      </trkpt>
      <trkpt lat="49.30496" lon="-0.015">
        <ele>143.4</ele>
        <time>2020-02-20T10:46:23.000Z</time>
      </trkpt>
      <trkpt lat="49.30485" lon="-0.01512">
        <ele>143.6</ele>
        <time>2020-02-20T10:46:40.000Z</time>
      </trkpt>
      <trkpt lat="49.3047" lon="-0.0152">
        <ele>144</ele>
        <time>2020-02-20T10:46:54.000Z</time>
      </trkpt>
      <trkpt lat="49.30457" lon="-0.01527">
        <ele>144</ele>
        <time>2020-02-20T10:47:09.000Z</time>
      </trkpt>
      <trkpt lat="49.30444" lon="-0.01536">
        <ele>144.3</ele>
        <time>2020-02-20T10:47:17.000Z</time>
      </trkpt>
      <trkpt lat="49.30428" lon="-0.01546">
        <ele>144.7</ele>
        <time>2020-02-20T10:47:29.000Z</time>
      </trkpt>
      <trkpt lat="49.30415" lon="-0.01551">
        <ele>144.8</ele>
        <time>2020-02-20T10:47:42.000Z</time>
      </trkpt>
      <trkpt lat="49.30403" lon="-0.01561">
        <ele>145.6</ele>
        <time>2020-02-20T10:47:56.000Z</time>
      </trkpt>
      <trkpt lat="49.3039" lon="-0.01567">
        <ele>146.1</ele>
        <time>2020-02-20T10:48:07.000Z</time>
      </trkpt>
      <trkpt lat="49.30376" lon="-0.01572">
        <ele>146.4</ele>
        <time>2020-02-20T10:48:15.000Z</time>
      </trkpt>
      <trkpt lat="49.30363" lon="-0.01578">
        <ele>146.5</ele>
        <time>2020-02-20T10:48:23.000Z</time>
      </trkpt>
      <trkpt lat="49.30349" lon="-0.01583">
        <ele>146.7</ele>
        <time>2020-02-20T10:48:33.000Z</time>
      </trkpt>
      <trkpt lat="49.30336" lon="-0.01587">
        <ele>146.7</ele>
        <time>2020-02-20T10:48:41.000Z</time>
      </trkpt>
      <trkpt lat="49.30321" lon="-0.01591">
        <ele>146.7</ele>
        <time>2020-02-20T10:48:52.000Z</time>
      </trkpt>
      <trkpt lat="49.30308" lon="-0.01597">
        <ele>146</ele>
        <time>2020-02-20T10:49:00.000Z</time>
      </trkpt>
      <trkpt lat="49.30294" lon="-0.01603">
        <ele>146.3</ele>
        <time>2020-02-20T10:49:14.000Z</time>
      </trkpt>
      <trkpt lat="49.3028" lon="-0.01605">
        <ele>146.2</ele>
        <time>2020-02-20T10:49:25.000Z</time>
      </trkpt>
      <trkpt lat="49.30266" lon="-0.01611">
        <ele>146</ele>
        <time>2020-02-20T10:49:34.000Z</time>
      </trkpt>
      <trkpt lat="49.30253" lon="-0.01617">
        <ele>145.8</ele>
        <time>2020-02-20T10:49:45.000Z</time>
      </trkpt>
      <trkpt lat="49.30239" lon="-0.01619">
        <ele>145.6</ele>
        <time>2020-02-20T10:49:56.000Z</time>
      </trkpt>
      <trkpt lat="49.30225" lon="-0.01622">
        <ele>145.3</ele>
        <time>2020-02-20T10:50:05.000Z</time>
      </trkpt>
      <trkpt lat="49.30211" lon="-0.01627">
        <ele>144.8</ele>
        <time>2020-02-20T10:50:16.000Z</time>
      </trkpt>
      <trkpt lat="49.30198" lon="-0.01625">
        <ele>145.3</ele>
        <time>2020-02-20T10:50:28.000Z</time>
      </trkpt>
      <trkpt lat="49.30183" lon="-0.01624">
        <ele>145.8</ele>
        <time>2020-02-20T10:50:40.000Z</time>
      </trkpt>
      <trkpt lat="49.30171" lon="-0.01636">
        <ele>147.8</ele>
        <time>2020-02-20T10:50:53.000Z</time>
      </trkpt>
      <trkpt lat="49.3016" lon="-0.0165">
        <ele>149</ele>
        <time>2020-02-20T10:51:05.000Z</time>
      </trkpt>
      <trkpt lat="49.30147" lon="-0.01658">
        <ele>150.1</ele>
        <time>2020-02-20T10:51:18.000Z</time>
      </trkpt>
      <trkpt lat="49.30138" lon="-0.01676">
        <ele>151.4</ele>
        <time>2020-02-20T10:51:31.000Z</time>
      </trkpt>
      <trkpt lat="49.30141" lon="-0.01697">
        <ele>152.6</ele>
        <time>2020-02-20T10:52:02.000Z</time>
      </trkpt>
      <trkpt lat="49.30147" lon="-0.01717">
        <ele>152.7</ele>
        <time>2020-02-20T10:52:13.000Z</time>
      </trkpt>
      <trkpt lat="49.30152" lon="-0.01737">
        <ele>152.2</ele>
        <time>2020-02-20T10:52:25.000Z</time>
      </trkpt>
      <trkpt lat="49.30155" lon="-0.01758">
        <ele>151.2</ele>
        <time>2020-02-20T10:52:38.000Z</time>
      </trkpt>
      <trkpt lat="49.3016" lon="-0.01778">
        <ele>150.8</ele>
        <time>2020-02-20T10:52:52.000Z</time>
      </trkpt>
      <trkpt lat="49.30164" lon="-0.01799">
        <ele>151.7</ele>
        <time>2020-02-20T10:53:04.000Z</time>
      </trkpt>
      <trkpt lat="49.30169" lon="-0.01818">
        <ele>151.8</ele>
        <time>2020-02-20T10:53:17.000Z</time>
      </trkpt>
      <trkpt lat="49.30175" lon="-0.01838">
        <ele>153.3</ele>
        <time>2020-02-20T10:53:29.000Z</time>
      </trkpt>
      <trkpt lat="49.30186" lon="-0.01852">
        <ele>154</ele>
        <time>2020-02-20T10:53:43.000Z</time>
      </trkpt>
      <trkpt lat="49.30198" lon="-0.01866">
        <ele>153.9</ele>
        <time>2020-02-20T10:53:56.000Z</time>
      </trkpt>
      <trkpt lat="49.3021" lon="-0.01881">
        <ele>153.7</ele>
        <time>2020-02-20T10:54:06.000Z</time>
      </trkpt>
      <trkpt lat="49.30221" lon="-0.01892">
        <ele>153.1</ele>
        <time>2020-02-20T10:54:20.000Z</time>
      </trkpt>
      <trkpt lat="49.3023" lon="-0.0191">
        <ele>153.7</ele>
        <time>2020-02-20T10:54:32.000Z</time>
      </trkpt>
      <trkpt lat="49.30239" lon="-0.01926">
        <ele>154.2</ele>
        <time>2020-02-20T10:54:45.000Z</time>
      </trkpt>
      <trkpt lat="49.3025" lon="-0.0194">
        <ele>154.4</ele>
        <time>2020-02-20T10:55:00.000Z</time>
      </trkpt>
      <trkpt lat="49.30264" lon="-0.01941">
        <ele>154.1</ele>
        <time>2020-02-20T10:55:08.000Z</time>
      </trkpt>
      <trkpt lat="49.30278" lon="-0.01948">
        <ele>154.1</ele>
        <time>2020-02-20T10:55:18.000Z</time>
      </trkpt>
      <trkpt lat="49.30289" lon="-0.0196">
        <ele>153.8</ele>
        <time>2020-02-20T10:55:29.000Z</time>
      </trkpt>
      <trkpt lat="49.30299" lon="-0.01974">
        <ele>153.3</ele>
        <time>2020-02-20T10:55:41.000Z</time>
      </trkpt>
      <trkpt lat="49.30311" lon="-0.01989">
        <ele>151.9</ele>
        <time>2020-02-20T10:55:55.000Z</time>
      </trkpt>
      <trkpt lat="49.30325" lon="-0.01992">
        <ele>151.9</ele>
        <time>2020-02-20T10:56:01.000Z</time>
      </trkpt>
      <trkpt lat="49.30339" lon="-0.01998">
        <ele>151.8</ele>
        <time>2020-02-20T10:56:13.000Z</time>
      </trkpt>
      <trkpt lat="49.30352" lon="-0.02006">
        <ele>151</ele>
        <time>2020-02-20T10:56:28.000Z</time>
      </trkpt>
      <trkpt lat="49.30366" lon="-0.02009">
        <ele>150.6</ele>
        <time>2020-02-20T10:56:37.000Z</time>
      </trkpt>
      <trkpt lat="49.3038" lon="-0.0201">
        <ele>150.9</ele>
        <time>2020-02-20T10:56:47.000Z</time>
      </trkpt>
      <trkpt lat="49.30395" lon="-0.02011">
        <ele>150.2</ele>
        <time>2020-02-20T10:57:02.000Z</time>
      </trkpt>
      <trkpt lat="49.30408" lon="-0.02019">
        <ele>150.1</ele>
        <time>2020-02-20T10:57:13.000Z</time>
      </trkpt>
      <trkpt lat="49.30423" lon="-0.02021">
        <ele>150.1</ele>
        <time>2020-02-20T10:57:23.000Z</time>
      </trkpt>
      <trkpt lat="49.30436" lon="-0.02024">
        <ele>149.7</ele>
        <time>2020-02-20T10:57:36.000Z</time>
      </trkpt>
      <trkpt lat="49.30451" lon="-0.02027">
        <ele>148.8</ele>
        <time>2020-02-20T10:57:50.000Z</time>
      </trkpt>
      <trkpt lat="49.30466" lon="-0.02032">
        <ele>147.3</ele>
        <time>2020-02-20T10:58:01.000Z</time>
      </trkpt>
      <trkpt lat="49.30481" lon="-0.02036">
        <ele>146.1</ele>
        <time>2020-02-20T10:58:17.000Z</time>
      </trkpt>
      <trkpt lat="49.30494" lon="-0.02041">
        <ele>145.9</ele>
        <time>2020-02-20T10:58:37.000Z</time>
      </trkpt>
      <trkpt lat="49.30507" lon="-0.02048">
        <ele>145.8</ele>
        <time>2020-02-20T10:58:55.000Z</time>
      </trkpt>
      <trkpt lat="49.3052" lon="-0.02038">
        <ele>144.4</ele>
        <time>2020-02-20T10:59:20.000Z</time>
      </trkpt>
      <trkpt lat="49.30532" lon="-0.02047">
        <ele>144.3</ele>
        <time>2020-02-20T11:00:52.000Z</time>
      </trkpt>
      <trkpt lat="49.30547" lon="-0.02046">
        <ele>145</ele>
        <time>2020-02-20T11:01:12.000Z</time>
      </trkpt>
      <trkpt lat="49.30561" lon="-0.02048">
        <ele>144.3</ele>
        <time>2020-02-20T11:01:29.000Z</time>
      </trkpt>
      <trkpt lat="49.30575" lon="-0.02044">
        <ele>143.4</ele>
        <time>2020-02-20T11:01:58.000Z</time>
      </trkpt>
      <trkpt lat="49.30589" lon="-0.02037">
        <ele>143.2</ele>
        <time>2020-02-20T11:02:13.000Z</time>
      </trkpt>
      <trkpt lat="49.30602" lon="-0.0203">
        <ele>143.1</ele>
        <time>2020-02-20T11:02:27.000Z</time>
      </trkpt>
      <trkpt lat="49.30616" lon="-0.02026">
        <ele>142.8</ele>
        <time>2020-02-20T11:02:40.000Z</time>
      </trkpt>
      <trkpt lat="49.3063" lon="-0.02023">
        <ele>141.7</ele>
        <time>2020-02-20T11:02:56.000Z</time>
      </trkpt>
      <trkpt lat="49.30644" lon="-0.0202">
        <ele>142.1</ele>
        <time>2020-02-20T11:03:11.000Z</time>
      </trkpt>
      <trkpt lat="49.30657" lon="-0.02017">
        <ele>141.6</ele>
        <time>2020-02-20T11:03:27.000Z</time>
      </trkpt>
      <trkpt lat="49.30671" lon="-0.02014">
        <ele>141.3</ele>
        <time>2020-02-20T11:03:41.000Z</time>
      </trkpt>
      <trkpt lat="49.30685" lon="-0.0201">
        <ele>140.9</ele>
        <time>2020-02-20T11:03:54.000Z</time>
      </trkpt>
      <trkpt lat="49.30698" lon="-0.02002">
        <ele>140.7</ele>
        <time>2020-02-20T11:04:06.000Z</time>
      </trkpt>
      <trkpt lat="49.30712" lon="-0.02">
        <ele>140.3</ele>
        <time>2020-02-20T11:04:16.000Z</time>
      </trkpt>
      <trkpt lat="49.30726" lon="-0.01998">
        <ele>140.1</ele>
        <time>2020-02-20T11:04:28.000Z</time>
      </trkpt>
      <trkpt lat="49.3074" lon="-0.01993">
        <ele>140</ele>
        <time>2020-02-20T11:04:40.000Z</time>
      </trkpt>
      <trkpt lat="49.30754" lon="-0.01992">
        <ele>139.8</ele>
        <time>2020-02-20T11:04:52.000Z</time>
      </trkpt>
      <trkpt lat="49.30768" lon="-0.0199">
        <ele>139.4</ele>
        <time>2020-02-20T11:05:03.000Z</time>
      </trkpt>
      <trkpt lat="49.30782" lon="-0.01987">
        <ele>139.5</ele>
        <time>2020-02-20T11:05:15.000Z</time>
      </trkpt>
      <trkpt lat="49.30796" lon="-0.01985">
        <ele>138.7</ele>
        <time>2020-02-20T11:05:27.000Z</time>
      </trkpt>
      <trkpt lat="49.3081" lon="-0.01983">
        <ele>138.6</ele>
        <time>2020-02-20T11:05:40.000Z</time>
      </trkpt>
      <trkpt lat="49.30824" lon="-0.01983">
        <ele>138.7</ele>
        <time>2020-02-20T11:05:53.000Z</time>
      </trkpt>
      <trkpt lat="49.30837" lon="-0.01983">
        <ele>138.8</ele>
        <time>2020-02-20T11:06:04.000Z</time>
      </trkpt>
      <trkpt lat="49.30851" lon="-0.0198">
        <ele>138.3</ele>
        <time>2020-02-20T11:06:21.000Z</time>
      </trkpt>
      <trkpt lat="49.30864" lon="-0.01975">
        <ele>137.9</ele>
        <time>2020-02-20T11:06:38.000Z</time>
      </trkpt>
      <trkpt lat="49.30877" lon="-0.01966">
        <ele>137.6</ele>
        <time>2020-02-20T11:07:17.000Z</time>
      </trkpt>
      <trkpt lat="49.30891" lon="-0.01968">
        <ele>136.6</ele>
        <time>2020-02-20T11:07:55.000Z</time>
      </trkpt>
      <trkpt lat="49.30904" lon="-0.01966">
        <ele>136.4</ele>
        <time>2020-02-20T11:08:07.000Z</time>
      </trkpt>
      <trkpt lat="49.30919" lon="-0.01964">
        <ele>136.4</ele>
        <time>2020-02-20T11:08:18.000Z</time>
      </trkpt>
      <trkpt lat="49.30933" lon="-0.01963">
        <ele>136.1</ele>
        <time>2020-02-20T11:08:29.000Z</time>
      </trkpt>
      <trkpt lat="49.30947" lon="-0.01963">
        <ele>135.9</ele>
        <time>2020-02-20T11:08:40.000Z</time>
      </trkpt>
      <trkpt lat="49.30961" lon="-0.01963">
        <ele>134.8</ele>
        <time>2020-02-20T11:08:50.000Z</time>
      </trkpt>
      <trkpt lat="49.30974" lon="-0.01965">
        <ele>133.7</ele>
        <time>2020-02-20T11:09:01.000Z</time>
      </trkpt>
      <trkpt lat="49.30988" lon="-0.0197">
        <ele>133.5</ele>
        <time>2020-02-20T11:09:14.000Z</time>
      </trkpt>
      <trkpt lat="49.31002" lon="-0.01978">
        <ele>133.6</ele>
        <time>2020-02-20T11:09:28.000Z</time>
      </trkpt>
      <trkpt lat="49.31015" lon="-0.0198">
        <ele>133.7</ele>
        <time>2020-02-20T11:09:40.000Z</time>
      </trkpt>
      <trkpt lat="49.31029" lon="-0.01984">
        <ele>133.1</ele>
        <time>2020-02-20T11:09:52.000Z</time>
      </trkpt>
      <trkpt lat="49.31043" lon="-0.01987">
        <ele>132.4</ele>
        <time>2020-02-20T11:10:05.000Z</time>
      </trkpt>
      <trkpt lat="49.31057" lon="-0.01992">
        <ele>132.2</ele>
        <time>2020-02-20T11:10:20.000Z</time>
      </trkpt>
      <trkpt lat="49.3107" lon="-0.01996">
        <ele>131.8</ele>
        <time>2020-02-20T11:10:32.000Z</time>
      </trkpt>
      <trkpt lat="49.31085" lon="-0.01998">
        <ele>132.3</ele>
        <time>2020-02-20T11:10:41.000Z</time>
      </trkpt>
      <trkpt lat="49.31099" lon="-0.02002">
        <ele>132.5</ele>
        <time>2020-02-20T11:10:51.000Z</time>
      </trkpt>
      <trkpt lat="49.31113" lon="-0.02005">
        <ele>132.3</ele>
        <time>2020-02-20T11:11:03.000Z</time>
      </trkpt>
      <trkpt lat="49.31127" lon="-0.02009">
        <ele>132.1</ele>
        <time>2020-02-20T11:11:16.000Z</time>
      </trkpt>
      <trkpt lat="49.31141" lon="-0.02012">
        <ele>131.8</ele>
        <time>2020-02-20T11:11:28.000Z</time>
      </trkpt>
      <trkpt lat="49.31155" lon="-0.02014">
        <ele>131.4</ele>
        <time>2020-02-20T11:11:39.000Z</time>
      </trkpt>
      <trkpt lat="49.31168" lon="-0.02016">
        <ele>131.1</ele>
        <time>2020-02-20T11:11:50.000Z</time>
      </trkpt>
      <trkpt lat="49.31182" lon="-0.02019">
        <ele>130.6</ele>
        <time>2020-02-20T11:12:02.000Z</time>
      </trkpt>
      <trkpt lat="49.31196" lon="-0.02024">
        <ele>130.1</ele>
        <time>2020-02-20T11:12:13.000Z</time>
      </trkpt>
      <trkpt lat="49.31209" lon="-0.02028">
        <ele>129.7</ele>
        <time>2020-02-20T11:12:24.000Z</time>
      </trkpt>
      <trkpt lat="49.31223" lon="-0.02034">
        <ele>129.4</ele>
        <time>2020-02-20T11:12:35.000Z</time>
      </trkpt>
      <trkpt lat="49.31237" lon="-0.02041">
        <ele>128.6</ele>
        <time>2020-02-20T11:12:46.000Z</time>
      </trkpt>
      <trkpt lat="49.31249" lon="-0.02049">
        <ele>128.4</ele>
        <time>2020-02-20T11:12:58.000Z</time>
      </trkpt>
      <trkpt lat="49.31261" lon="-0.0206">
        <ele>128.1</ele>
        <time>2020-02-20T11:13:11.000Z</time>
      </trkpt>
      <trkpt lat="49.31272" lon="-0.02072">
        <ele>128.1</ele>
        <time>2020-02-20T11:13:24.000Z</time>
      </trkpt>
      <trkpt lat="49.31286" lon="-0.02082">
        <ele>127.2</ele>
        <time>2020-02-20T11:13:35.000Z</time>
      </trkpt>
      <trkpt lat="49.31297" lon="-0.02093">
        <ele>126.8</ele>
        <time>2020-02-20T11:13:46.000Z</time>
      </trkpt>
      <trkpt lat="49.31309" lon="-0.02107">
        <ele>126.3</ele>
        <time>2020-02-20T11:13:56.000Z</time>
      </trkpt>
      <trkpt lat="49.31315" lon="-0.02127">
        <ele>125.7</ele>
        <time>2020-02-20T11:14:06.000Z</time>
      </trkpt>
      <trkpt lat="49.31316" lon="-0.02149">
        <ele>124.8</ele>
        <time>2020-02-20T11:14:16.000Z</time>
      </trkpt>
      <trkpt lat="49.31312" lon="-0.0217">
        <ele>125.1</ele>
        <time>2020-02-20T11:14:28.000Z</time>
      </trkpt>
      <trkpt lat="49.31312" lon="-0.02191">
        <ele>126</ele>
        <time>2020-02-20T11:14:38.000Z</time>
      </trkpt>
      <trkpt lat="49.31311" lon="-0.02212">
        <ele>125.4</ele>
        <time>2020-02-20T11:14:52.000Z</time>
      </trkpt>
      <trkpt lat="49.31306" lon="-0.02233">
        <ele>125.7</ele>
        <time>2020-02-20T11:15:04.000Z</time>
      </trkpt>
      <trkpt lat="49.313" lon="-0.02252">
        <ele>126.6</ele>
        <time>2020-02-20T11:15:17.000Z</time>
      </trkpt>
      <trkpt lat="49.31296" lon="-0.02272">
        <ele>126.8</ele>
        <time>2020-02-20T11:15:29.000Z</time>
      </trkpt>
      <trkpt lat="49.31293" lon="-0.02293">
        <ele>126.7</ele>
        <time>2020-02-20T11:15:40.000Z</time>
      </trkpt>
      <trkpt lat="49.31295" lon="-0.02315">
        <ele>127</ele>
        <time>2020-02-20T11:15:53.000Z</time>
      </trkpt>
      <trkpt lat="49.31287" lon="-0.02333">
        <ele>127.2</ele>
        <time>2020-02-20T11:16:03.000Z</time>
      </trkpt>
      <trkpt lat="49.31282" lon="-0.02353">
        <ele>127.1</ele>
        <time>2020-02-20T11:16:12.000Z</time>
      </trkpt>
      <trkpt lat="49.31277" lon="-0.02374">
        <ele>127.2</ele>
        <time>2020-02-20T11:16:24.000Z</time>
      </trkpt>
      <trkpt lat="49.31271" lon="-0.02393">
        <ele>127.3</ele>
        <time>2020-02-20T11:16:38.000Z</time>
      </trkpt>
      <trkpt lat="49.31268" lon="-0.02415">
        <ele>127</ele>
        <time>2020-02-20T11:16:57.000Z</time>
      </trkpt>
      <trkpt lat="49.3126" lon="-0.02434">
        <ele>127.1</ele>
        <time>2020-02-20T11:17:08.000Z</time>
      </trkpt>
      <trkpt lat="49.31254" lon="-0.02452">
        <ele>127.1</ele>
        <time>2020-02-20T11:17:17.000Z</time>
      </trkpt>
      <trkpt lat="49.31249" lon="-0.02472">
        <ele>126.9</ele>
        <time>2020-02-20T11:17:27.000Z</time>
      </trkpt>
      <trkpt lat="49.31244" lon="-0.02492">
        <ele>126.9</ele>
        <time>2020-02-20T11:17:39.000Z</time>
      </trkpt>
      <trkpt lat="49.31238" lon="-0.02511">
        <ele>127.1</ele>
        <time>2020-02-20T11:17:48.000Z</time>
      </trkpt>
      <trkpt lat="49.31241" lon="-0.02533">
        <ele>126.9</ele>
        <time>2020-02-20T11:18:00.000Z</time>
      </trkpt>
      <trkpt lat="49.31242" lon="-0.02554">
        <ele>125.9</ele>
        <time>2020-02-20T11:18:13.000Z</time>
      </trkpt>
      <trkpt lat="49.3124" lon="-0.02577">
        <ele>125.4</ele>
        <time>2020-02-20T11:18:25.000Z</time>
      </trkpt>
      <trkpt lat="49.31232" lon="-0.02593">
        <ele>126.2</ele>
        <time>2020-02-20T11:18:33.000Z</time>
      </trkpt>
      <trkpt lat="49.31226" lon="-0.02612">
        <ele>126.1</ele>
        <time>2020-02-20T11:18:48.000Z</time>
      </trkpt>
      <trkpt lat="49.31215" lon="-0.02627">
        <ele>126.2</ele>
        <time>2020-02-20T11:18:56.000Z</time>
      </trkpt>
      <trkpt lat="49.31205" lon="-0.02643">
        <ele>126.5</ele>
        <time>2020-02-20T11:19:08.000Z</time>
      </trkpt>
      <trkpt lat="49.31196" lon="-0.02659">
        <ele>126</ele>
        <time>2020-02-20T11:19:21.000Z</time>
      </trkpt>
      <trkpt lat="49.31185" lon="-0.02674">
        <ele>126.1</ele>
        <time>2020-02-20T11:19:33.000Z</time>
      </trkpt>
      <trkpt lat="49.31177" lon="-0.02694">
        <ele>126.2</ele>
        <time>2020-02-20T11:19:45.000Z</time>
      </trkpt>
      <trkpt lat="49.31169" lon="-0.02711">
        <ele>125.9</ele>
        <time>2020-02-20T11:19:56.000Z</time>
      </trkpt>
      <trkpt lat="49.31159" lon="-0.02727">
        <ele>125.5</ele>
        <time>2020-02-20T11:20:07.000Z</time>
      </trkpt>
      <trkpt lat="49.31152" lon="-0.02745">
        <ele>124.7</ele>
        <time>2020-02-20T11:20:19.000Z</time>
      </trkpt>
      <trkpt lat="49.31145" lon="-0.02763">
        <ele>124.4</ele>
        <time>2020-02-20T11:20:32.000Z</time>
      </trkpt>
      <trkpt lat="49.31137" lon="-0.02781">
        <ele>124.3</ele>
        <time>2020-02-20T11:20:43.000Z</time>
      </trkpt>
      <trkpt lat="49.31129" lon="-0.02798">
        <ele>125</ele>
        <time>2020-02-20T11:20:56.000Z</time>
      </trkpt>
      <trkpt lat="49.31122" lon="-0.02816">
        <ele>125.5</ele>
        <time>2020-02-20T11:21:08.000Z</time>
      </trkpt>
      <trkpt lat="49.31114" lon="-0.02833">
        <ele>125.4</ele>
        <time>2020-02-20T11:21:19.000Z</time>
      </trkpt>
      <trkpt lat="49.31106" lon="-0.02849">
        <ele>125.4</ele>
        <time>2020-02-20T11:21:30.000Z</time>
      </trkpt>
      <trkpt lat="49.31098" lon="-0.02867">
        <ele>124</ele>
        <time>2020-02-20T11:21:40.000Z</time>
      </trkpt>
      <trkpt lat="49.3109" lon="-0.02886">
        <ele>123.2</ele>
        <time>2020-02-20T11:21:51.000Z</time>
      </trkpt>
      <trkpt lat="49.31083" lon="-0.02905">
        <ele>122.4</ele>
        <time>2020-02-20T11:22:02.000Z</time>
      </trkpt>
      <trkpt lat="49.31076" lon="-0.02924">
        <ele>122.4</ele>
        <time>2020-02-20T11:22:15.000Z</time>
      </trkpt>
      <trkpt lat="49.31068" lon="-0.02942">
        <ele>123</ele>
        <time>2020-02-20T11:22:30.000Z</time>
      </trkpt>
      <trkpt lat="49.31057" lon="-0.02955">
        <ele>123.5</ele>
        <time>2020-02-20T11:22:40.000Z</time>
      </trkpt>
      <trkpt lat="49.31047" lon="-0.02971">
        <ele>123.1</ele>
        <time>2020-02-20T11:22:51.000Z</time>
      </trkpt>
      <trkpt lat="49.31036" lon="-0.02985">
        <ele>124.1</ele>
        <time>2020-02-20T11:23:02.000Z</time>
      </trkpt>
      <trkpt lat="49.31028" lon="-0.03001">
        <ele>124</ele>
        <time>2020-02-20T11:23:12.000Z</time>
      </trkpt>
      <trkpt lat="49.31018" lon="-0.03018">
        <ele>124.9</ele>
        <time>2020-02-20T11:23:23.000Z</time>
      </trkpt>
      <trkpt lat="49.3101" lon="-0.03036">
        <ele>124.4</ele>
        <time>2020-02-20T11:23:34.000Z</time>
      </trkpt>
      <trkpt lat="49.31005" lon="-0.03055">
        <ele>124.6</ele>
        <time>2020-02-20T11:23:45.000Z</time>
      </trkpt>
      <trkpt lat="49.31001" lon="-0.03076">
        <ele>124.3</ele>
        <time>2020-02-20T11:23:57.000Z</time>
      </trkpt>
      <trkpt lat="49.30995" lon="-0.03096">
        <ele>124.2</ele>
        <time>2020-02-20T11:24:09.000Z</time>
      </trkpt>
      <trkpt lat="49.30989" lon="-0.03117">
        <ele>124</ele>
        <time>2020-02-20T11:24:20.000Z</time>
      </trkpt>
      <trkpt lat="49.3098" lon="-0.03134">
        <ele>123.2</ele>
        <time>2020-02-20T11:24:30.000Z</time>
      </trkpt>
      <trkpt lat="49.30976" lon="-0.03154">
        <ele>123.6</ele>
        <time>2020-02-20T11:24:43.000Z</time>
      </trkpt>
      <trkpt lat="49.30968" lon="-0.03173">
        <ele>123.5</ele>
        <time>2020-02-20T11:24:54.000Z</time>
      </trkpt>
      <trkpt lat="49.30961" lon="-0.03192">
        <ele>122.8</ele>
        <time>2020-02-20T11:25:06.000Z</time>
      </trkpt>
      <trkpt lat="49.30955" lon="-0.03211">
        <ele>122.6</ele>
        <time>2020-02-20T11:25:17.000Z</time>
      </trkpt>
      <trkpt lat="49.30946" lon="-0.03227">
        <ele>121.9</ele>
        <time>2020-02-20T11:25:30.000Z</time>
      </trkpt>
      <trkpt lat="49.30948" lon="-0.03249">
        <ele>122.6</ele>
        <time>2020-02-20T11:25:45.000Z</time>
      </trkpt>
      <trkpt lat="49.3096" lon="-0.03261">
        <ele>122.2</ele>
        <time>2020-02-20T11:25:58.000Z</time>
      </trkpt>
      <trkpt lat="49.30972" lon="-0.03272">
        <ele>121.5</ele>
        <time>2020-02-20T11:26:11.000Z</time>
      </trkpt>
      <trkpt lat="49.30984" lon="-0.03283">
        <ele>121.6</ele>
        <time>2020-02-20T11:26:24.000Z</time>
      </trkpt>
      <trkpt lat="49.30996" lon="-0.03293">
        <ele>121.7</ele>
        <time>2020-02-20T11:26:35.000Z</time>
      </trkpt>
      <trkpt lat="49.31009" lon="-0.03303">
        <ele>121.7</ele>
        <time>2020-02-20T11:26:48.000Z</time>
      </trkpt>
      <trkpt lat="49.31024" lon="-0.03305">
        <ele>121.5</ele>
        <time>2020-02-20T11:26:59.000Z</time>
      </trkpt>
      <trkpt lat="49.31037" lon="-0.03298">
        <ele>121.3</ele>
        <time>2020-02-20T11:27:10.000Z</time>
      </trkpt>
      <trkpt lat="49.31049" lon="-0.03286">
        <ele>120.5</ele>
        <time>2020-02-20T11:27:20.000Z</time>
      </trkpt>
      <trkpt lat="49.31062" lon="-0.03276">
        <ele>119.2</ele>
        <time>2020-02-20T11:27:33.000Z</time>
      </trkpt>
      <trkpt lat="49.31075" lon="-0.03268">
        <ele>118.6</ele>
        <time>2020-02-20T11:27:44.000Z</time>
      </trkpt>
      <trkpt lat="49.31088" lon="-0.03261">
        <ele>118.6</ele>
        <time>2020-02-20T11:27:54.000Z</time>
      </trkpt>
      <trkpt lat="49.311" lon="-0.03249">
        <ele>119.1</ele>
        <time>2020-02-20T11:28:04.000Z</time>
      </trkpt>
      <trkpt lat="49.31111" lon="-0.03235">
        <ele>120</ele>
        <time>2020-02-20T11:28:15.000Z</time>
      </trkpt>
      <trkpt lat="49.31122" lon="-0.03222">
        <ele>121.1</ele>
        <time>2020-02-20T11:28:26.000Z</time>
      </trkpt>
      <trkpt lat="49.31132" lon="-0.03206">
        <ele>121.5</ele>
        <time>2020-02-20T11:28:38.000Z</time>
      </trkpt>
      <trkpt lat="49.31142" lon="-0.03192">
        <ele>121.7</ele>
        <time>2020-02-20T11:28:49.000Z</time>
      </trkpt>
      <trkpt lat="49.31152" lon="-0.03179">
        <ele>122</ele>
        <time>2020-02-20T11:28:59.000Z</time>
      </trkpt>
      <trkpt lat="49.31163" lon="-0.03165">
        <ele>121.6</ele>
        <time>2020-02-20T11:29:11.000Z</time>
      </trkpt>
      <trkpt lat="49.31174" lon="-0.03151">
        <ele>121.6</ele>
        <time>2020-02-20T11:29:22.000Z</time>
      </trkpt>
      <trkpt lat="49.31186" lon="-0.03139">
        <ele>121.6</ele>
        <time>2020-02-20T11:29:32.000Z</time>
      </trkpt>
      <trkpt lat="49.31197" lon="-0.03126">
        <ele>122</ele>
        <time>2020-02-20T11:29:46.000Z</time>
      </trkpt>
      <trkpt lat="49.31209" lon="-0.03114">
        <ele>122.5</ele>
        <time>2020-02-20T11:29:57.000Z</time>
      </trkpt>
      <trkpt lat="49.31222" lon="-0.03103">
        <ele>121.6</ele>
        <time>2020-02-20T11:30:09.000Z</time>
      </trkpt>
      <trkpt lat="49.31235" lon="-0.03095">
        <ele>121.3</ele>
        <time>2020-02-20T11:30:19.000Z</time>
      </trkpt>
      <trkpt lat="49.31248" lon="-0.03088">
        <ele>120.4</ele>
        <time>2020-02-20T11:30:30.000Z</time>
      </trkpt>
      <trkpt lat="49.31261" lon="-0.03082">
        <ele>119.9</ele>
        <time>2020-02-20T11:30:44.000Z</time>
      </trkpt>
      <trkpt lat="49.31274" lon="-0.03073">
        <ele>119.3</ele>
        <time>2020-02-20T11:30:58.000Z</time>
      </trkpt>
      <trkpt lat="49.31279" lon="-0.03053">
        <ele>118.9</ele>
        <time>2020-02-20T11:31:12.000Z</time>
      </trkpt>
      <trkpt lat="49.31281" lon="-0.03031">
        <ele>119.2</ele>
        <time>2020-02-20T11:31:22.000Z</time>
      </trkpt>
      <trkpt lat="49.31286" lon="-0.03012">
        <ele>118.7</ele>
        <time>2020-02-20T11:31:33.000Z</time>
      </trkpt>
      <trkpt lat="49.31289" lon="-0.0299">
        <ele>118.8</ele>
        <time>2020-02-20T11:31:46.000Z</time>
      </trkpt>
      <trkpt lat="49.31288" lon="-0.02967">
        <ele>119.1</ele>
        <time>2020-02-20T11:31:59.000Z</time>
      </trkpt>
      <trkpt lat="49.31287" lon="-0.02946">
        <ele>119</ele>
        <time>2020-02-20T11:32:10.000Z</time>
      </trkpt>
      <trkpt lat="49.31284" lon="-0.02924">
        <ele>119.4</ele>
        <time>2020-02-20T11:32:22.000Z</time>
      </trkpt>
      <trkpt lat="49.31278" lon="-0.02904">
        <ele>119.8</ele>
        <time>2020-02-20T11:32:33.000Z</time>
      </trkpt>
      <trkpt lat="49.31279" lon="-0.02884">
        <ele>120.1</ele>
        <time>2020-02-20T11:32:46.000Z</time>
      </trkpt>
      <trkpt lat="49.31279" lon="-0.02862">
        <ele>119.5</ele>
        <time>2020-02-20T11:33:01.000Z</time>
      </trkpt>
      <trkpt lat="49.3128" lon="-0.02841">
        <ele>119.8</ele>
        <time>2020-02-20T11:33:16.000Z</time>
      </trkpt>
      <trkpt lat="49.31281" lon="-0.02819">
        <ele>120.5</ele>
        <time>2020-02-20T11:33:29.000Z</time>
      </trkpt>
      <trkpt lat="49.31286" lon="-0.02799">
        <ele>121</ele>
        <time>2020-02-20T11:33:42.000Z</time>
      </trkpt>
      <trkpt lat="49.31287" lon="-0.02778">
        <ele>121.6</ele>
        <time>2020-02-20T11:33:54.000Z</time>
      </trkpt>
      <trkpt lat="49.31292" lon="-0.02758">
        <ele>121.4</ele>
        <time>2020-02-20T11:34:05.000Z</time>
      </trkpt>
      <trkpt lat="49.31297" lon="-0.02737">
        <ele>121.4</ele>
        <time>2020-02-20T11:34:21.000Z</time>
      </trkpt>
      <trkpt lat="49.31304" lon="-0.02719">
        <ele>121.5</ele>
        <time>2020-02-20T11:34:32.000Z</time>
      </trkpt>
      <trkpt lat="49.31312" lon="-0.02701">
        <ele>120.9</ele>
        <time>2020-02-20T11:34:47.000Z</time>
      </trkpt>
      <trkpt lat="49.3132" lon="-0.02684">
        <ele>121</ele>
        <time>2020-02-20T11:34:59.000Z</time>
      </trkpt>
      <trkpt lat="49.31326" lon="-0.02664">
        <ele>121.6</ele>
        <time>2020-02-20T11:35:11.000Z</time>
      </trkpt>
      <trkpt lat="49.31333" lon="-0.02645">
        <ele>120.8</ele>
        <time>2020-02-20T11:35:30.000Z</time>
      </trkpt>
      <trkpt lat="49.31341" lon="-0.02628">
        <ele>121.6</ele>
        <time>2020-02-20T11:35:43.000Z</time>
      </trkpt>
      <trkpt lat="49.3135" lon="-0.02612">
        <ele>121.9</ele>
        <time>2020-02-20T11:36:03.000Z</time>
      </trkpt>
      <trkpt lat="49.31358" lon="-0.02594">
        <ele>121</ele>
        <time>2020-02-20T11:36:17.000Z</time>
      </trkpt>
      <trkpt lat="49.31366" lon="-0.02576">
        <ele>120.4</ele>
        <time>2020-02-20T11:36:31.000Z</time>
      </trkpt>
      <trkpt lat="49.31377" lon="-0.02563">
        <ele>120.6</ele>
        <time>2020-02-20T11:36:41.000Z</time>
      </trkpt>
      <trkpt lat="49.31385" lon="-0.02546">
        <ele>120.6</ele>
        <time>2020-02-20T11:36:53.000Z</time>
      </trkpt>
      <trkpt lat="49.31395" lon="-0.0253">
        <ele>119.1</ele>
        <time>2020-02-20T11:37:04.000Z</time>
      </trkpt>
      <trkpt lat="49.31405" lon="-0.02515">
        <ele>117.8</ele>
        <time>2020-02-20T11:37:18.000Z</time>
      </trkpt>
      <trkpt lat="49.31413" lon="-0.02498">
        <ele>118.1</ele>
        <time>2020-02-20T11:37:31.000Z</time>
      </trkpt>
      <trkpt lat="49.3142" lon="-0.02479">
        <ele>117.3</ele>
        <time>2020-02-20T11:37:44.000Z</time>
      </trkpt>
      <trkpt lat="49.31428" lon="-0.0246">
        <ele>116.2</ele>
        <time>2020-02-20T11:37:54.000Z</time>
      </trkpt>
      <trkpt lat="49.31434" lon="-0.02442">
        <ele>115.9</ele>
        <time>2020-02-20T11:38:04.000Z</time>
      </trkpt>
      <trkpt lat="49.3144" lon="-0.02422">
        <ele>115.8</ele>
        <time>2020-02-20T11:38:17.000Z</time>
      </trkpt>
      <trkpt lat="49.31445" lon="-0.02402">
        <ele>116.1</ele>
        <time>2020-02-20T11:38:28.000Z</time>
      </trkpt>
      <trkpt lat="49.31451" lon="-0.02381">
        <ele>116.7</ele>
        <time>2020-02-20T11:38:40.000Z</time>
      </trkpt>
      <trkpt lat="49.31457" lon="-0.02362">
        <ele>117.2</ele>
        <time>2020-02-20T11:38:51.000Z</time>
      </trkpt>
      <trkpt lat="49.31463" lon="-0.02343">
        <ele>116.8</ele>
        <time>2020-02-20T11:39:03.000Z</time>
      </trkpt>
      <trkpt lat="49.3147" lon="-0.02323">
        <ele>117.2</ele>
        <time>2020-02-20T11:39:14.000Z</time>
      </trkpt>
      <trkpt lat="49.31476" lon="-0.02302">
        <ele>117.5</ele>
        <time>2020-02-20T11:39:27.000Z</time>
      </trkpt>
      <trkpt lat="49.31479" lon="-0.02281">
        <ele>116.9</ele>
        <time>2020-02-20T11:39:37.000Z</time>
      </trkpt>
      <trkpt lat="49.31481" lon="-0.02259">
        <ele>117.3</ele>
        <time>2020-02-20T11:39:49.000Z</time>
      </trkpt>
      <trkpt lat="49.3148" lon="-0.02238">
        <ele>117.3</ele>
        <time>2020-02-20T11:40:01.000Z</time>
      </trkpt>
      <trkpt lat="49.31481" lon="-0.02216">
        <ele>118.1</ele>
        <time>2020-02-20T11:40:15.000Z</time>
      </trkpt>
      <trkpt lat="49.31488" lon="-0.02197">
        <ele>117</ele>
        <time>2020-02-20T11:42:07.000Z</time>
      </trkpt>
      <trkpt lat="49.315" lon="-0.02186">
        <ele>115.3</ele>
        <time>2020-02-20T11:42:36.000Z</time>
      </trkpt>
      <trkpt lat="49.31511" lon="-0.02175">
        <ele>114.9</ele>
        <time>2020-02-20T11:42:46.000Z</time>
      </trkpt>
      <trkpt lat="49.31523" lon="-0.02162">
        <ele>113.5</ele>
        <time>2020-02-20T11:42:59.000Z</time>
      </trkpt>
      <trkpt lat="49.31533" lon="-0.02146">
        <ele>113.1</ele>
        <time>2020-02-20T11:43:13.000Z</time>
      </trkpt>
      <trkpt lat="49.31541" lon="-0.02129">
        <ele>112.4</ele>
        <time>2020-02-20T11:43:28.000Z</time>
      </trkpt>
      <trkpt lat="49.31548" lon="-0.0211">
        <ele>111.6</ele>
        <time>2020-02-20T11:43:39.000Z</time>
      </trkpt>
      <trkpt lat="49.31557" lon="-0.02092">
        <ele>110.7</ele>
        <time>2020-02-20T11:43:52.000Z</time>
      </trkpt>
      <trkpt lat="49.31564" lon="-0.02074">
        <ele>109.6</ele>
        <time>2020-02-20T11:44:10.000Z</time>
      </trkpt>
      <trkpt lat="49.31569" lon="-0.02055">
        <ele>108.2</ele>
        <time>2020-02-20T11:44:26.000Z</time>
      </trkpt>
      <trkpt lat="49.31573" lon="-0.02034">
        <ele>106.7</ele>
        <time>2020-02-20T11:44:50.000Z</time>
      </trkpt>
      <trkpt lat="49.31578" lon="-0.02014">
        <ele>106.3</ele>
        <time>2020-02-20T11:45:04.000Z</time>
      </trkpt>
      <trkpt lat="49.31585" lon="-0.01995">
        <ele>105</ele>
        <time>2020-02-20T11:45:20.000Z</time>
      </trkpt>
      <trkpt lat="49.31593" lon="-0.01973">
        <ele>102.4</ele>
        <time>2020-02-20T11:45:32.000Z</time>
      </trkpt>
      <trkpt lat="49.31601" lon="-0.01956">
        <ele>100.1</ele>
        <time>2020-02-20T11:45:46.000Z</time>
      </trkpt>
      <trkpt lat="49.31609" lon="-0.01938">
        <ele>99.1</ele>
        <time>2020-02-20T11:46:07.000Z</time>
      </trkpt>
      <trkpt lat="49.31618" lon="-0.01922">
        <ele>97.6</ele>
        <time>2020-02-20T11:46:20.000Z</time>
      </trkpt>
      <trkpt lat="49.31629" lon="-0.01908">
        <ele>96.3</ele>
        <time>2020-02-20T11:46:38.000Z</time>
      </trkpt>
      <trkpt lat="49.31641" lon="-0.01898">
        <ele>94.5</ele>
        <time>2020-02-20T11:46:53.000Z</time>
      </trkpt>
      <trkpt lat="49.31654" lon="-0.01891">
        <ele>91.7</ele>
        <time>2020-02-20T11:47:15.000Z</time>
      </trkpt>
      <trkpt lat="49.31668" lon="-0.01891">
        <ele>89.4</ele>
        <time>2020-02-20T11:47:33.000Z</time>
      </trkpt>
      <trkpt lat="49.31682" lon="-0.01888">
        <ele>89.5</ele>
        <time>2020-02-20T11:47:47.000Z</time>
      </trkpt>
      <trkpt lat="49.31697" lon="-0.01886">
        <ele>87.7</ele>
        <time>2020-02-20T11:47:56.000Z</time>
      </trkpt>
      <trkpt lat="49.31711" lon="-0.01879">
        <ele>87.9</ele>
        <time>2020-02-20T11:48:08.000Z</time>
      </trkpt>
      <trkpt lat="49.31725" lon="-0.01876">
        <ele>86.5</ele>
        <time>2020-02-20T11:48:17.000Z</time>
      </trkpt>
      <trkpt lat="49.31738" lon="-0.01869">
        <ele>85.2</ele>
        <time>2020-02-20T11:48:29.000Z</time>
      </trkpt>
      <trkpt lat="49.3175" lon="-0.01859">
        <ele>84.2</ele>
        <time>2020-02-20T11:48:42.000Z</time>
      </trkpt>
      <trkpt lat="49.31762" lon="-0.01848">
        <ele>83</ele>
        <time>2020-02-20T11:48:55.000Z</time>
      </trkpt>
      <trkpt lat="49.31775" lon="-0.01839">
        <ele>82.2</ele>
        <time>2020-02-20T11:49:06.000Z</time>
      </trkpt>
      <trkpt lat="49.31782" lon="-0.0182">
        <ele>81.7</ele>
        <time>2020-02-20T11:49:18.000Z</time>
      </trkpt>
      <trkpt lat="49.31786" lon="-0.018">
        <ele>81.7</ele>
        <time>2020-02-20T11:49:31.000Z</time>
      </trkpt>
      <trkpt lat="49.31792" lon="-0.01779">
        <ele>80.6</ele>
        <time>2020-02-20T11:49:42.000Z</time>
      </trkpt>
      <trkpt lat="49.31795" lon="-0.01757">
        <ele>78.2</ele>
        <time>2020-02-20T11:49:54.000Z</time>
      </trkpt>
      <trkpt lat="49.31796" lon="-0.01736">
        <ele>77.1</ele>
        <time>2020-02-20T11:50:10.000Z</time>
      </trkpt>
      <trkpt lat="49.31792" lon="-0.01714">
        <ele>76.4</ele>
        <time>2020-02-20T11:50:23.000Z</time>
      </trkpt>
      <trkpt lat="49.31791" lon="-0.01692">
        <ele>76.7</ele>
        <time>2020-02-20T11:50:34.000Z</time>
      </trkpt>
      <trkpt lat="49.31786" lon="-0.01671">
        <ele>76</ele>
        <time>2020-02-20T11:50:46.000Z</time>
      </trkpt>
      <trkpt lat="49.31782" lon="-0.01651">
        <ele>75.6</ele>
        <time>2020-02-20T11:50:58.000Z</time>
      </trkpt>
      <trkpt lat="49.31778" lon="-0.0163">
        <ele>75.2</ele>
        <time>2020-02-20T11:51:09.000Z</time>
      </trkpt>
      <trkpt lat="49.31775" lon="-0.01608">
        <ele>75</ele>
        <time>2020-02-20T11:51:21.000Z</time>
      </trkpt>
      <trkpt lat="49.31769" lon="-0.01588">
        <ele>74.1</ele>
        <time>2020-02-20T11:51:32.000Z</time>
      </trkpt>
      <trkpt lat="49.31765" lon="-0.01568">
        <ele>73.6</ele>
        <time>2020-02-20T11:51:44.000Z</time>
      </trkpt>
      <trkpt lat="49.31763" lon="-0.01547">
        <ele>73</ele>
        <time>2020-02-20T11:51:54.000Z</time>
      </trkpt>
      <trkpt lat="49.31757" lon="-0.01528">
        <ele>71.6</ele>
        <time>2020-02-20T11:52:06.000Z</time>
      </trkpt>
      <trkpt lat="49.31755" lon="-0.01506">
        <ele>71.2</ele>
        <time>2020-02-20T11:52:18.000Z</time>
      </trkpt>
      <trkpt lat="49.3175" lon="-0.01487">
        <ele>71.6</ele>
        <time>2020-02-20T11:52:29.000Z</time>
      </trkpt>
      <trkpt lat="49.31743" lon="-0.01466">
        <ele>72.1</ele>
        <time>2020-02-20T11:52:42.000Z</time>
      </trkpt>
      <trkpt lat="49.31739" lon="-0.01445">
        <ele>72.5</ele>
        <time>2020-02-20T11:52:55.000Z</time>
      </trkpt>
      <trkpt lat="49.31739" lon="-0.01424">
        <ele>72.6</ele>
        <time>2020-02-20T11:53:06.000Z</time>
      </trkpt>
      <trkpt lat="49.31734" lon="-0.01404">
        <ele>72.9</ele>
        <time>2020-02-20T11:53:18.000Z</time>
      </trkpt>
      <trkpt lat="49.31732" lon="-0.01382">
        <ele>74.8</ele>
        <time>2020-02-20T11:53:31.000Z</time>
      </trkpt>
      <trkpt lat="49.3174" lon="-0.01364">
        <ele>77.7</ele>
        <time>2020-02-20T11:53:55.000Z</time>
      </trkpt>
      <trkpt lat="49.31753" lon="-0.01357">
        <ele>76.7</ele>
        <time>2020-02-20T11:54:06.000Z</time>
      </trkpt>
      <trkpt lat="49.31767" lon="-0.01351">
        <ele>76</ele>
        <time>2020-02-20T11:54:19.000Z</time>
      </trkpt>
      <trkpt lat="49.3178" lon="-0.01346">
        <ele>76.1</ele>
        <time>2020-02-20T11:54:33.000Z</time>
      </trkpt>
      <trkpt lat="49.31794" lon="-0.01339">
        <ele>75.5</ele>
        <time>2020-02-20T11:54:43.000Z</time>
      </trkpt>
      <trkpt lat="49.31805" lon="-0.01326">
        <ele>75.5</ele>
        <time>2020-02-20T11:54:55.000Z</time>
      </trkpt>
      <trkpt lat="49.31816" lon="-0.01314">
        <ele>75.9</ele>
        <time>2020-02-20T11:55:04.000Z</time>
      </trkpt>
      <trkpt lat="49.31826" lon="-0.01299">
        <ele>76.4</ele>
        <time>2020-02-20T11:55:18.000Z</time>
      </trkpt>
      <trkpt lat="49.31829" lon="-0.01278">
        <ele>76</ele>
        <time>2020-02-20T11:55:32.000Z</time>
      </trkpt>
      <trkpt lat="49.31831" lon="-0.01257">
        <ele>76.8</ele>
        <time>2020-02-20T11:55:42.000Z</time>
      </trkpt>
      <trkpt lat="49.31831" lon="-0.01236">
        <ele>77.2</ele>
        <time>2020-02-20T11:55:51.000Z</time>
      </trkpt>
      <trkpt lat="49.31828" lon="-0.01215">
        <ele>76.5</ele>
        <time>2020-02-20T11:56:04.000Z</time>
      </trkpt>
      <trkpt lat="49.31831" lon="-0.01194">
        <ele>76.3</ele>
        <time>2020-02-20T11:56:16.000Z</time>
      </trkpt>
      <trkpt lat="49.31839" lon="-0.01177">
        <ele>75.6</ele>
        <time>2020-02-20T11:56:27.000Z</time>
      </trkpt>
      <trkpt lat="49.3185" lon="-0.01163">
        <ele>74.6</ele>
        <time>2020-02-20T11:56:38.000Z</time>
      </trkpt>
      <trkpt lat="49.31859" lon="-0.01148">
        <ele>72.1</ele>
        <time>2020-02-20T11:56:48.000Z</time>
      </trkpt>
      <trkpt lat="49.31866" lon="-0.01131">
        <ele>70.8</ele>
        <time>2020-02-20T11:56:59.000Z</time>
      </trkpt>
      <trkpt lat="49.31867" lon="-0.0111">
        <ele>70.6</ele>
        <time>2020-02-20T11:57:10.000Z</time>
      </trkpt>
      <trkpt lat="49.31865" lon="-0.01089">
        <ele>69.7</ele>
        <time>2020-02-20T11:57:22.000Z</time>
      </trkpt>
      <trkpt lat="49.31862" lon="-0.01068">
        <ele>68.5</ele>
        <time>2020-02-20T11:57:34.000Z</time>
      </trkpt>
      <trkpt lat="49.31859" lon="-0.01048">
        <ele>67</ele>
        <time>2020-02-20T11:57:46.000Z</time>
      </trkpt>
      <trkpt lat="49.3186" lon="-0.01026">
        <ele>65.6</ele>
        <time>2020-02-20T11:57:57.000Z</time>
      </trkpt>
      <trkpt lat="49.31865" lon="-0.01007">
        <ele>63.6</ele>
        <time>2020-02-20T11:58:11.000Z</time>
      </trkpt>
      <trkpt lat="49.31876" lon="-0.00994">
        <ele>62.1</ele>
        <time>2020-02-20T11:58:21.000Z</time>
      </trkpt>
      <trkpt lat="49.31889" lon="-0.00982">
        <ele>60.3</ele>
        <time>2020-02-20T11:58:34.000Z</time>
      </trkpt>
      <trkpt lat="49.31901" lon="-0.00971">
        <ele>58.1</ele>
        <time>2020-02-20T11:58:47.000Z</time>
      </trkpt>
      <trkpt lat="49.31913" lon="-0.00962">
        <ele>54.6</ele>
        <time>2020-02-20T11:59:00.000Z</time>
      </trkpt>
      <trkpt lat="49.31926" lon="-0.00955">
        <ele>52.1</ele>
        <time>2020-02-20T11:59:14.000Z</time>
      </trkpt>
      <trkpt lat="49.31936" lon="-0.00939">
        <ele>50.1</ele>
        <time>2020-02-20T11:59:27.000Z</time>
      </trkpt>
      <trkpt lat="49.31948" lon="-0.00926">
        <ele>49.3</ele>
        <time>2020-02-20T11:59:41.000Z</time>
      </trkpt>
      <trkpt lat="49.31961" lon="-0.00917">
        <ele>49</ele>
        <time>2020-02-20T11:59:51.000Z</time>
      </trkpt>
      <trkpt lat="49.31974" lon="-0.00909">
        <ele>46</ele>
        <time>2020-02-20T12:00:04.000Z</time>
      </trkpt>
      <trkpt lat="49.31985" lon="-0.00897">
        <ele>44.1</ele>
        <time>2020-02-20T12:00:16.000Z</time>
      </trkpt>
      <trkpt lat="49.31991" lon="-0.00877">
        <ele>42.5</ele>
        <time>2020-02-20T12:00:27.000Z</time>
      </trkpt>
      <trkpt lat="49.31997" lon="-0.00858">
        <ele>41</ele>
        <time>2020-02-20T12:00:38.000Z</time>
      </trkpt>
      <trkpt lat="49.32" lon="-0.00837">
        <ele>39.2</ele>
        <time>2020-02-20T12:00:51.000Z</time>
      </trkpt>
      <trkpt lat="49.32008" lon="-0.0082">
        <ele>39.6</ele>
        <time>2020-02-20T12:01:56.000Z</time>
      </trkpt>
      <trkpt lat="49.32012" lon="-0.00798">
        <ele>37.5</ele>
        <time>2020-02-20T12:02:09.000Z</time>
      </trkpt>
      <trkpt lat="49.32019" lon="-0.00778">
        <ele>35.6</ele>
        <time>2020-02-20T12:02:22.000Z</time>
      </trkpt>
      <trkpt lat="49.32024" lon="-0.00756">
        <ele>32.5</ele>
        <time>2020-02-20T12:02:35.000Z</time>
      </trkpt>
      <trkpt lat="49.32026" lon="-0.00735">
        <ele>29.8</ele>
        <time>2020-02-20T12:02:47.000Z</time>
      </trkpt>
      <trkpt lat="49.32032" lon="-0.00716">
        <ele>26.4</ele>
        <time>2020-02-20T12:02:59.000Z</time>
      </trkpt>
      <trkpt lat="49.32036" lon="-0.00695">
        <ele>24.2</ele>
        <time>2020-02-20T12:03:11.000Z</time>
      </trkpt>
      <trkpt lat="49.32041" lon="-0.00676">
        <ele>21.6</ele>
        <time>2020-02-20T12:03:22.000Z</time>
      </trkpt>
      <trkpt lat="49.32054" lon="-0.00666">
        <ele>20.3</ele>
        <time>2020-02-20T12:03:36.000Z</time>
      </trkpt>
      <trkpt lat="49.32068" lon="-0.00671">
        <ele>20.9</ele>
        <time>2020-02-20T12:03:50.000Z</time>
      </trkpt>
      <trkpt lat="49.32082" lon="-0.00677">
        <ele>20.5</ele>
        <time>2020-02-20T12:04:03.000Z</time>
      </trkpt>
      <trkpt lat="49.32096" lon="-0.00672">
        <ele>19.7</ele>
        <time>2020-02-20T12:04:13.000Z</time>
      </trkpt>
      <trkpt lat="49.3211" lon="-0.00668">
        <ele>17.7</ele>
        <time>2020-02-20T12:04:26.000Z</time>
      </trkpt>
      <trkpt lat="49.32121" lon="-0.0068">
        <ele>16.5</ele>
        <time>2020-02-20T12:04:42.000Z</time>
      </trkpt>
      <trkpt lat="49.32121" lon="-0.00681">
        <ele>16.7</ele>
        <time>2020-02-20T12:04:43.000Z</time>
      </trkpt>
    </trkseg>
  </trk>
</gpx>